
<gpx xmlns="http://www.topografix.com/GPX/1/1" xmlns:gpxx="http://www.garmin.com/xmlschemas/GpxExtensions/v3" xmlns:xsi="http://www.w3.org/2001/XMLSchema-instance" version="1.1" creator="Adze - https://getadze.com/" xsi:schemaLocation="http://www.topografix.com/GPX/1/1 http://www.topografix.com/GPX/1/1/gpx.xsd http://www.garmin.com/xmlschemas/GpxExtensions/v3 http://www.garmin.com/xmlschemas/GpxExtensionsv3.xsd">
    <metadata>
        <name>Untitled Document</name>
        <link href="http://www.garmin.com"></link>
        <time>2018-03-06T04:25:07.795Z</time>
    </metadata>
    <wpt lon="101.546510" lat="12.770101">
        <ele>62.000000</ele>
        <name>Orchard Park</name>
        <cmt>22-SEP-06 15:39:41</cmt>
        <desc>22-SEP-06 15:39:41</desc>
        <sym>Building</sym>
        <extensions>
            <gpxx:WaypointExtension xmlns:gpxx="http://www.garmin.com/xmlschemas/GpxExtensions/v2" xmlns:xsi="http://www.w3.org/2001/XMLSchema-instance" xsi:schemaLocation="http://www.garmin.com/xmlschemas/GpxExtensions/v2 http://www.garmin.com/xmlschemas/GpxExtensions/v2/GpxExtensionsv2.xsd">
                <gpxx:DisplayMode>SymbolAndName</gpxx:DisplayMode>
            </gpxx:WaypointExtension>
        </extensions>
    </wpt>
    <wpt lon="101.453029" lat="12.730174">
        <name>September 2006 - Saturday water stop</name>
    </wpt>
    <trk>
        <name>September 2006 -  Saturday</name>
        <extensions>
            <gpxx:TrackExtension>
                <gpxx:DisplayColor>Magenta</gpxx:DisplayColor>
            </gpxx:TrackExtension>
        </extensions>
        <trkseg>
            <trkpt lon="101.546856" lat="12.770236">
                <ele>63.103638</ele>
                <time>2006-09-23T05:53:05Z</time>
            </trkpt>
            <trkpt lon="101.546826" lat="12.770186">
                <ele>64.065063</ele>
                <time>2006-09-23T05:53:09Z</time>
            </trkpt>
            <trkpt lon="101.546498" lat="12.770010">
                <ele>62.142334</ele>
                <time>2006-09-23T05:53:23Z</time>
            </trkpt>
            <trkpt lon="101.546201" lat="12.769959">
                <ele>62.622925</ele>
                <time>2006-09-23T05:53:35Z</time>
            </trkpt>
            <trkpt lon="101.546182" lat="12.769964">
                <ele>62.622925</ele>
                <time>2006-09-23T05:53:36Z</time>
            </trkpt>
            <trkpt lon="101.546150" lat="12.770005">
                <ele>63.584351</ele>
                <time>2006-09-23T05:53:40Z</time>
            </trkpt>
            <trkpt lon="101.546129" lat="12.770034">
                <ele>66.468262</ele>
                <time>2006-09-23T05:53:46Z</time>
            </trkpt>
            <trkpt lon="101.546020" lat="12.770050">
                <ele>69.352295</ele>
                <time>2006-09-23T05:53:58Z</time>
            </trkpt>
            <trkpt lon="101.545773" lat="12.770014">
                <ele>69.352295</ele>
                <time>2006-09-23T05:54:17Z</time>
            </trkpt>
            <trkpt lon="101.545743" lat="12.769967">
                <ele>69.352295</ele>
                <time>2006-09-23T05:54:21Z</time>
            </trkpt>
            <trkpt lon="101.545725" lat="12.769944">
                <ele>69.352295</ele>
                <time>2006-09-23T05:54:24Z</time>
            </trkpt>
            <trkpt lon="101.545722" lat="12.769869">
                <ele>69.352295</ele>
                <time>2006-09-23T05:54:31Z</time>
            </trkpt>
            <trkpt lon="101.545667" lat="12.769826">
                <ele>69.832886</ele>
                <time>2006-09-23T05:54:36Z</time>
            </trkpt>
            <trkpt lon="101.545462" lat="12.769913">
                <ele>72.236206</ele>
                <time>2006-09-23T05:54:54Z</time>
            </trkpt>
            <trkpt lon="101.545453" lat="12.769921">
                <ele>71.755493</ele>
                <time>2006-09-23T05:54:56Z</time>
            </trkpt>
            <trkpt lon="101.545329" lat="12.769956">
                <ele>70.313477</ele>
                <time>2006-09-23T05:55:08Z</time>
            </trkpt>
            <trkpt lon="101.545310" lat="12.769951">
                <ele>69.352295</ele>
                <time>2006-09-23T05:55:10Z</time>
            </trkpt>
            <trkpt lon="101.545248" lat="12.769965">
                <ele>67.910278</ele>
                <time>2006-09-23T05:55:15Z</time>
            </trkpt>
            <trkpt lon="101.545206" lat="12.769978">
                <ele>65.987671</ele>
                <time>2006-09-23T05:55:28Z</time>
            </trkpt>
            <trkpt lon="101.545153" lat="12.769962">
                <ele>65.507080</ele>
                <time>2006-09-23T06:06:57Z</time>
            </trkpt>
            <trkpt lon="101.545170" lat="12.769976">
                <ele>66.948975</ele>
                <time>2006-09-23T06:07:42Z</time>
            </trkpt>
            <trkpt lon="101.545028" lat="12.769857">
                <ele>64.065063</ele>
                <time>2006-09-23T06:07:48Z</time>
            </trkpt>
            <trkpt lon="101.544150" lat="12.769431">
                <ele>53.490479</ele>
                <time>2006-09-23T06:08:00Z</time>
            </trkpt>
            <trkpt lon="101.543790" lat="12.769255">
                <ele>49.645264</ele>
                <time>2006-09-23T06:08:04Z</time>
            </trkpt>
            <trkpt lon="101.543414" lat="12.769326">
                <ele>47.722534</ele>
                <time>2006-09-23T06:08:09Z</time>
            </trkpt>
            <trkpt lon="101.543247" lat="12.769466">
                <ele>46.761230</ele>
                <time>2006-09-23T06:08:12Z</time>
            </trkpt>
            <trkpt lon="101.543029" lat="12.769457">
                <ele>46.280640</ele>
                <time>2006-09-23T06:08:16Z</time>
            </trkpt>
            <trkpt lon="101.540918" lat="12.768130">
                <ele>46.761230</ele>
                <time>2006-09-23T06:08:49Z</time>
            </trkpt>
            <trkpt lon="101.540807" lat="12.768075">
                <ele>46.761230</ele>
                <time>2006-09-23T06:08:52Z</time>
            </trkpt>
            <trkpt lon="101.540817" lat="12.768043">
                <ele>49.164551</ele>
                <time>2006-09-23T06:09:02Z</time>
            </trkpt>
            <trkpt lon="101.540910" lat="12.768114">
                <ele>55.413086</ele>
                <time>2006-09-23T06:11:51Z</time>
            </trkpt>
            <trkpt lon="101.540400" lat="12.769061">
                <ele>56.855103</ele>
                <time>2006-09-23T06:12:30Z</time>
            </trkpt>
            <trkpt lon="101.540426" lat="12.769664">
                <ele>59.258423</ele>
                <time>2006-09-23T06:12:49Z</time>
            </trkpt>
            <trkpt lon="101.540669" lat="12.770091">
                <ele>62.142334</ele>
                <time>2006-09-23T06:13:06Z</time>
            </trkpt>
            <trkpt lon="101.540684" lat="12.770103">
                <ele>60.700317</ele>
                <time>2006-09-23T06:13:15Z</time>
            </trkpt>
            <trkpt lon="101.540685" lat="12.770142">
                <ele>62.622925</ele>
                <time>2006-09-23T06:13:26Z</time>
            </trkpt>
            <trkpt lon="101.540688" lat="12.770128">
                <ele>67.429688</ele>
                <time>2006-09-23T06:14:49Z</time>
            </trkpt>
            <trkpt lon="101.541450" lat="12.771528">
                <ele>69.832886</ele>
                <time>2006-09-23T06:15:22Z</time>
            </trkpt>
            <trkpt lon="101.541705" lat="12.772051">
                <ele>70.313477</ele>
                <time>2006-09-23T06:15:37Z</time>
            </trkpt>
            <trkpt lon="101.541705" lat="12.772067">
                <ele>69.832886</ele>
                <time>2006-09-23T06:15:38Z</time>
            </trkpt>
            <trkpt lon="101.541541" lat="12.772210">
                <ele>68.390869</ele>
                <time>2006-09-23T06:15:49Z</time>
            </trkpt>
            <trkpt lon="101.541297" lat="12.772454">
                <ele>67.910278</ele>
                <time>2006-09-23T06:16:04Z</time>
            </trkpt>
            <trkpt lon="101.541059" lat="12.772659">
                <ele>67.910278</ele>
                <time>2006-09-23T06:16:16Z</time>
            </trkpt>
            <trkpt lon="101.540625" lat="12.773080">
                <ele>66.468262</ele>
                <time>2006-09-23T06:16:33Z</time>
            </trkpt>
            <trkpt lon="101.540270" lat="12.773430">
                <ele>62.142334</ele>
                <time>2006-09-23T06:16:48Z</time>
            </trkpt>
            <trkpt lon="101.540131" lat="12.773559">
                <ele>60.219727</ele>
                <time>2006-09-23T06:17:01Z</time>
            </trkpt>
            <trkpt lon="101.539958" lat="12.773735">
                <ele>57.335815</ele>
                <time>2006-09-23T06:17:16Z</time>
            </trkpt>
            <trkpt lon="101.539706" lat="12.773950">
                <ele>54.932373</ele>
                <time>2006-09-23T06:17:28Z</time>
            </trkpt>
            <trkpt lon="101.539466" lat="12.774204">
                <ele>55.893799</ele>
                <time>2006-09-23T06:17:40Z</time>
            </trkpt>
            <trkpt lon="101.539090" lat="12.774563">
                <ele>57.335815</ele>
                <time>2006-09-23T06:17:54Z</time>
            </trkpt>
            <trkpt lon="101.538701" lat="12.774927">
                <ele>54.451782</ele>
                <time>2006-09-23T06:18:07Z</time>
            </trkpt>
            <trkpt lon="101.538458" lat="12.774920">
                <ele>53.490479</ele>
                <time>2006-09-23T06:18:14Z</time>
            </trkpt>
            <trkpt lon="101.538034" lat="12.774588">
                <ele>51.087158</ele>
                <time>2006-09-23T06:18:29Z</time>
            </trkpt>
            <trkpt lon="101.537595" lat="12.774222">
                <ele>58.297119</ele>
                <time>2006-09-23T06:18:51Z</time>
            </trkpt>
            <trkpt lon="101.537007" lat="12.773820">
                <ele>62.622925</ele>
                <time>2006-09-23T06:19:14Z</time>
            </trkpt>
            <trkpt lon="101.536465" lat="12.773438">
                <ele>68.390869</ele>
                <time>2006-09-23T06:19:36Z</time>
            </trkpt>
            <trkpt lon="101.536383" lat="12.773398">
                <ele>68.390869</ele>
                <time>2006-09-23T06:19:38Z</time>
            </trkpt>
            <trkpt lon="101.535998" lat="12.773302">
                <ele>68.871582</ele>
                <time>2006-09-23T06:19:45Z</time>
            </trkpt>
            <trkpt lon="101.535547" lat="12.773261">
                <ele>68.871582</ele>
                <time>2006-09-23T06:19:55Z</time>
            </trkpt>
            <trkpt lon="101.534432" lat="12.772892">
                <ele>76.562134</ele>
                <time>2006-09-23T06:20:17Z</time>
            </trkpt>
            <trkpt lon="101.533879" lat="12.772781">
                <ele>81.368774</ele>
                <time>2006-09-23T06:20:32Z</time>
            </trkpt>
            <trkpt lon="101.533373" lat="12.772704">
                <ele>82.330078</ele>
                <time>2006-09-23T06:20:51Z</time>
            </trkpt>
            <trkpt lon="101.532833" lat="12.772672">
                <ele>75.600830</ele>
                <time>2006-09-23T06:21:03Z</time>
            </trkpt>
            <trkpt lon="101.531930" lat="12.772507">
                <ele>70.794189</ele>
                <time>2006-09-23T06:21:21Z</time>
            </trkpt>
            <trkpt lon="101.531775" lat="12.772468">
                <ele>69.832886</ele>
                <time>2006-09-23T06:21:24Z</time>
            </trkpt>
            <trkpt lon="101.531636" lat="12.772150">
                <ele>67.429688</ele>
                <time>2006-09-23T06:21:32Z</time>
            </trkpt>
            <trkpt lon="101.531624" lat="12.772049">
                <ele>66.468262</ele>
                <time>2006-09-23T06:21:34Z</time>
            </trkpt>
            <trkpt lon="101.531589" lat="12.771666">
                <ele>63.103638</ele>
                <time>2006-09-23T06:21:42Z</time>
            </trkpt>
            <trkpt lon="101.531522" lat="12.771062">
                <ele>59.258423</ele>
                <time>2006-09-23T06:21:55Z</time>
            </trkpt>
            <trkpt lon="101.531521" lat="12.770973">
                <ele>59.258423</ele>
                <time>2006-09-23T06:21:57Z</time>
            </trkpt>
            <trkpt lon="101.531444" lat="12.770628">
                <ele>59.739136</ele>
                <time>2006-09-23T06:22:06Z</time>
            </trkpt>
            <trkpt lon="101.530978" lat="12.770169">
                <ele>61.181030</ele>
                <time>2006-09-23T06:22:22Z</time>
            </trkpt>
            <trkpt lon="101.530273" lat="12.769663">
                <ele>61.181030</ele>
                <time>2006-09-23T06:22:48Z</time>
            </trkpt>
            <trkpt lon="101.530058" lat="12.769482">
                <ele>65.507080</ele>
                <time>2006-09-23T06:23:02Z</time>
            </trkpt>
            <trkpt lon="101.529813" lat="12.769296">
                <ele>69.832886</ele>
                <time>2006-09-23T06:23:14Z</time>
            </trkpt>
            <trkpt lon="101.529367" lat="12.768948">
                <ele>69.352295</ele>
                <time>2006-09-23T06:23:31Z</time>
            </trkpt>
            <trkpt lon="101.529308" lat="12.768949">
                <ele>69.832886</ele>
                <time>2006-09-23T06:23:34Z</time>
            </trkpt>
            <trkpt lon="101.529202" lat="12.769063">
                <ele>69.832886</ele>
                <time>2006-09-23T06:23:41Z</time>
            </trkpt>
            <trkpt lon="101.528859" lat="12.769533">
                <ele>68.390869</ele>
                <time>2006-09-23T06:23:56Z</time>
            </trkpt>
            <trkpt lon="101.528258" lat="12.770346">
                <ele>65.987671</ele>
                <time>2006-09-23T06:24:12Z</time>
            </trkpt>
            <trkpt lon="101.527907" lat="12.770880">
                <ele>65.507080</ele>
                <time>2006-09-23T06:24:27Z</time>
            </trkpt>
            <trkpt lon="101.527613" lat="12.771610">
                <ele>67.910278</ele>
                <time>2006-09-23T06:24:44Z</time>
            </trkpt>
            <trkpt lon="101.527370" lat="12.772534">
                <ele>67.910278</ele>
                <time>2006-09-23T06:24:56Z</time>
            </trkpt>
            <trkpt lon="101.527117" lat="12.773051">
                <ele>66.948975</ele>
                <time>2006-09-23T06:25:03Z</time>
            </trkpt>
            <trkpt lon="101.526195" lat="12.773784">
                <ele>66.948975</ele>
                <time>2006-09-23T06:25:19Z</time>
            </trkpt>
            <trkpt lon="101.525576" lat="12.774393">
                <ele>64.065063</ele>
                <time>2006-09-23T06:25:32Z</time>
            </trkpt>
            <trkpt lon="101.525380" lat="12.775234">
                <ele>62.142334</ele>
                <time>2006-09-23T06:25:46Z</time>
            </trkpt>
            <trkpt lon="101.525138" lat="12.776378">
                <ele>65.507080</ele>
                <time>2006-09-23T06:26:05Z</time>
            </trkpt>
            <trkpt lon="101.524730" lat="12.777123">
                <ele>67.429688</ele>
                <time>2006-09-23T06:26:22Z</time>
            </trkpt>
            <trkpt lon="101.524501" lat="12.777701">
                <ele>68.871582</ele>
                <time>2006-09-23T06:26:39Z</time>
            </trkpt>
            <trkpt lon="101.524503" lat="12.777698">
                <ele>68.871582</ele>
                <time>2006-09-23T06:26:49Z</time>
            </trkpt>
            <trkpt lon="101.524420" lat="12.777919">
                <ele>71.755493</ele>
                <time>2006-09-23T06:27:00Z</time>
            </trkpt>
            <trkpt lon="101.524258" lat="12.778579">
                <ele>85.213989</ele>
                <time>2006-09-23T06:27:18Z</time>
            </trkpt>
            <trkpt lon="101.524000" lat="12.779529">
                <ele>92.904541</ele>
                <time>2006-09-23T06:27:42Z</time>
            </trkpt>
            <trkpt lon="101.523840" lat="12.780104">
                <ele>94.827148</ele>
                <time>2006-09-23T06:27:59Z</time>
            </trkpt>
            <trkpt lon="101.523580" lat="12.780814">
                <ele>99.153076</ele>
                <time>2006-09-23T06:28:20Z</time>
            </trkpt>
            <trkpt lon="101.523115" lat="12.781324">
                <ele>100.114502</ele>
                <time>2006-09-23T06:28:40Z</time>
            </trkpt>
            <trkpt lon="101.522626" lat="12.781575">
                <ele>100.595093</ele>
                <time>2006-09-23T06:29:01Z</time>
            </trkpt>
            <trkpt lon="101.522103" lat="12.781748">
                <ele>102.037109</ele>
                <time>2006-09-23T06:29:20Z</time>
            </trkpt>
            <trkpt lon="101.521442" lat="12.781873">
                <ele>102.998291</ele>
                <time>2006-09-23T06:29:33Z</time>
            </trkpt>
            <trkpt lon="101.520521" lat="12.781950">
                <ele>101.556396</ele>
                <time>2006-09-23T06:29:48Z</time>
            </trkpt>
            <trkpt lon="101.520471" lat="12.781944">
                <ele>101.556396</ele>
                <time>2006-09-23T06:29:49Z</time>
            </trkpt>
            <trkpt lon="101.520098" lat="12.781962">
                <ele>109.727661</ele>
                <time>2006-09-23T06:30:00Z</time>
            </trkpt>
            <trkpt lon="101.520036" lat="12.781913">
                <ele>107.324341</ele>
                <time>2006-09-23T06:30:09Z</time>
            </trkpt>
            <trkpt lon="101.519642" lat="12.781843">
                <ele>102.998291</ele>
                <time>2006-09-23T06:30:21Z</time>
            </trkpt>
            <trkpt lon="101.518798" lat="12.781417">
                <ele>98.191895</ele>
                <time>2006-09-23T06:30:35Z</time>
            </trkpt>
            <trkpt lon="101.518343" lat="12.781058">
                <ele>97.711182</ele>
                <time>2006-09-23T06:30:42Z</time>
            </trkpt>
            <trkpt lon="101.518050" lat="12.780969">
                <ele>97.230469</ele>
                <time>2006-09-23T06:30:45Z</time>
            </trkpt>
            <trkpt lon="101.516950" lat="12.780983">
                <ele>96.269287</ele>
                <time>2006-09-23T06:30:57Z</time>
            </trkpt>
            <trkpt lon="101.516357" lat="12.780903">
                <ele>91.943237</ele>
                <time>2006-09-23T06:31:06Z</time>
            </trkpt>
            <trkpt lon="101.516187" lat="12.780653">
                <ele>84.733398</ele>
                <time>2006-09-23T06:31:13Z</time>
            </trkpt>
            <trkpt lon="101.516221" lat="12.779776">
                <ele>71.274902</ele>
                <time>2006-09-23T06:31:28Z</time>
            </trkpt>
            <trkpt lon="101.516200" lat="12.779217">
                <ele>65.987671</ele>
                <time>2006-09-23T06:31:37Z</time>
            </trkpt>
            <trkpt lon="101.515941" lat="12.778375">
                <ele>58.297119</ele>
                <time>2006-09-23T06:31:51Z</time>
            </trkpt>
            <trkpt lon="101.515895" lat="12.777942">
                <ele>55.413086</ele>
                <time>2006-09-23T06:31:58Z</time>
            </trkpt>
            <trkpt lon="101.515992" lat="12.777429">
                <ele>52.529175</ele>
                <time>2006-09-23T06:32:06Z</time>
            </trkpt>
            <trkpt lon="101.515898" lat="12.777018">
                <ele>49.645264</ele>
                <time>2006-09-23T06:32:12Z</time>
            </trkpt>
            <trkpt lon="101.515026" lat="12.775787">
                <ele>45.319214</ele>
                <time>2006-09-23T06:32:31Z</time>
            </trkpt>
            <trkpt lon="101.514921" lat="12.775491">
                <ele>44.838623</ele>
                <time>2006-09-23T06:32:35Z</time>
            </trkpt>
            <trkpt lon="101.514940" lat="12.774613">
                <ele>47.241821</ele>
                <time>2006-09-23T06:32:48Z</time>
            </trkpt>
            <trkpt lon="101.515013" lat="12.774065">
                <ele>49.645264</ele>
                <time>2006-09-23T06:33:02Z</time>
            </trkpt>
            <trkpt lon="101.515100" lat="12.773521">
                <ele>49.645264</ele>
                <time>2006-09-23T06:33:16Z</time>
            </trkpt>
            <trkpt lon="101.515083" lat="12.773325">
                <ele>49.164551</ele>
                <time>2006-09-23T06:33:21Z</time>
            </trkpt>
            <trkpt lon="101.514929" lat="12.773292">
                <ele>48.683960</ele>
                <time>2006-09-23T06:33:25Z</time>
            </trkpt>
            <trkpt lon="101.513799" lat="12.773384">
                <ele>47.241821</ele>
                <time>2006-09-23T06:33:45Z</time>
            </trkpt>
            <trkpt lon="101.512470" lat="12.773541">
                <ele>46.280640</ele>
                <time>2006-09-23T06:34:06Z</time>
            </trkpt>
            <trkpt lon="101.512162" lat="12.773656">
                <ele>45.799927</ele>
                <time>2006-09-23T06:34:12Z</time>
            </trkpt>
            <trkpt lon="101.511934" lat="12.773810">
                <ele>45.319214</ele>
                <time>2006-09-23T06:34:18Z</time>
            </trkpt>
            <trkpt lon="101.511767" lat="12.773888">
                <ele>44.838623</ele>
                <time>2006-09-23T06:34:22Z</time>
            </trkpt>
            <trkpt lon="101.511421" lat="12.774128">
                <ele>43.877319</ele>
                <time>2006-09-23T06:34:31Z</time>
            </trkpt>
            <trkpt lon="101.511115" lat="12.774303">
                <ele>42.435425</ele>
                <time>2006-09-23T06:34:41Z</time>
            </trkpt>
            <trkpt lon="101.511120" lat="12.774378">
                <ele>44.838623</ele>
                <time>2006-09-23T06:34:54Z</time>
            </trkpt>
            <trkpt lon="101.511133" lat="12.774348">
                <ele>48.203369</ele>
                <time>2006-09-23T06:35:05Z</time>
            </trkpt>
            <trkpt lon="101.510859" lat="12.774263">
                <ele>48.203369</ele>
                <time>2006-09-23T06:35:20Z</time>
            </trkpt>
            <trkpt lon="101.509972" lat="12.774454">
                <ele>42.916016</ele>
                <time>2006-09-23T06:35:36Z</time>
            </trkpt>
            <trkpt lon="101.509351" lat="12.774730">
                <ele>40.512817</ele>
                <time>2006-09-23T06:35:47Z</time>
            </trkpt>
            <trkpt lon="101.509100" lat="12.774752">
                <ele>40.032104</ele>
                <time>2006-09-23T06:35:51Z</time>
            </trkpt>
            <trkpt lon="101.507555" lat="12.774488">
                <ele>41.954712</ele>
                <time>2006-09-23T06:36:13Z</time>
            </trkpt>
            <trkpt lon="101.506627" lat="12.774048">
                <ele>44.358032</ele>
                <time>2006-09-23T06:36:28Z</time>
            </trkpt>
            <trkpt lon="101.506272" lat="12.773996">
                <ele>44.838623</ele>
                <time>2006-09-23T06:36:34Z</time>
            </trkpt>
            <trkpt lon="101.506096" lat="12.773990">
                <ele>44.838623</ele>
                <time>2006-09-23T06:36:38Z</time>
            </trkpt>
            <trkpt lon="101.505793" lat="12.774142">
                <ele>47.241821</ele>
                <time>2006-09-23T06:36:49Z</time>
            </trkpt>
            <trkpt lon="101.505712" lat="12.774208">
                <ele>48.203369</ele>
                <time>2006-09-23T06:36:52Z</time>
            </trkpt>
            <trkpt lon="101.504981" lat="12.774313">
                <ele>51.567871</ele>
                <time>2006-09-23T06:37:08Z</time>
            </trkpt>
            <trkpt lon="101.504652" lat="12.774342">
                <ele>51.087158</ele>
                <time>2006-09-23T06:37:14Z</time>
            </trkpt>
            <trkpt lon="101.504514" lat="12.774371">
                <ele>49.645264</ele>
                <time>2006-09-23T06:37:17Z</time>
            </trkpt>
            <trkpt lon="101.504426" lat="12.774379">
                <ele>49.164551</ele>
                <time>2006-09-23T06:37:19Z</time>
            </trkpt>
            <trkpt lon="101.504187" lat="12.774386">
                <ele>50.606567</ele>
                <time>2006-09-23T06:37:30Z</time>
            </trkpt>
            <trkpt lon="101.504227" lat="12.774491">
                <ele>61.661743</ele>
                <time>2006-09-23T06:39:44Z</time>
            </trkpt>
            <trkpt lon="101.504160" lat="12.774496">
                <ele>59.739136</ele>
                <time>2006-09-23T06:39:48Z</time>
            </trkpt>
            <trkpt lon="101.504087" lat="12.774496">
                <ele>59.258423</ele>
                <time>2006-09-23T06:39:50Z</time>
            </trkpt>
            <trkpt lon="101.504006" lat="12.774475">
                <ele>58.777710</ele>
                <time>2006-09-23T06:39:52Z</time>
            </trkpt>
            <trkpt lon="101.503866" lat="12.774364">
                <ele>57.816528</ele>
                <time>2006-09-23T06:39:56Z</time>
            </trkpt>
            <trkpt lon="101.503684" lat="12.774083">
                <ele>57.335815</ele>
                <time>2006-09-23T06:40:03Z</time>
            </trkpt>
            <trkpt lon="101.503175" lat="12.773286">
                <ele>52.529175</ele>
                <time>2006-09-23T06:40:25Z</time>
            </trkpt>
            <trkpt lon="101.502571" lat="12.772331">
                <ele>49.164551</ele>
                <time>2006-09-23T06:40:47Z</time>
            </trkpt>
            <trkpt lon="101.502560" lat="12.772221">
                <ele>48.683960</ele>
                <time>2006-09-23T06:40:49Z</time>
            </trkpt>
            <trkpt lon="101.502606" lat="12.771869">
                <ele>46.280640</ele>
                <time>2006-09-23T06:40:55Z</time>
            </trkpt>
            <trkpt lon="101.502829" lat="12.769850">
                <ele>47.722534</ele>
                <time>2006-09-23T06:41:34Z</time>
            </trkpt>
            <trkpt lon="101.502808" lat="12.769679">
                <ele>47.241821</ele>
                <time>2006-09-23T06:41:38Z</time>
            </trkpt>
            <trkpt lon="101.502742" lat="12.769520">
                <ele>47.241821</ele>
                <time>2006-09-23T06:41:42Z</time>
            </trkpt>
            <trkpt lon="101.502613" lat="12.769360">
                <ele>46.761230</ele>
                <time>2006-09-23T06:41:46Z</time>
            </trkpt>
            <trkpt lon="101.501798" lat="12.768937">
                <ele>46.761230</ele>
                <time>2006-09-23T06:42:01Z</time>
            </trkpt>
            <trkpt lon="101.501450" lat="12.768512">
                <ele>45.799927</ele>
                <time>2006-09-23T06:42:16Z</time>
            </trkpt>
            <trkpt lon="101.501321" lat="12.768158">
                <ele>44.838623</ele>
                <time>2006-09-23T06:42:25Z</time>
            </trkpt>
            <trkpt lon="101.501175" lat="12.767725">
                <ele>44.358032</ele>
                <time>2006-09-23T06:42:34Z</time>
            </trkpt>
            <trkpt lon="101.501087" lat="12.767459">
                <ele>43.877319</ele>
                <time>2006-09-23T06:42:40Z</time>
            </trkpt>
            <trkpt lon="101.501047" lat="12.767319">
                <ele>43.877319</ele>
                <time>2006-09-23T06:42:43Z</time>
            </trkpt>
            <trkpt lon="101.500931" lat="12.766940">
                <ele>44.358032</ele>
                <time>2006-09-23T06:42:55Z</time>
            </trkpt>
            <trkpt lon="101.500861" lat="12.766465">
                <ele>47.722534</ele>
                <time>2006-09-23T06:43:15Z</time>
            </trkpt>
            <trkpt lon="101.500848" lat="12.766420">
                <ele>49.645264</ele>
                <time>2006-09-23T06:43:32Z</time>
            </trkpt>
            <trkpt lon="101.500898" lat="12.766583">
                <ele>49.645264</ele>
                <time>2006-09-23T06:43:45Z</time>
            </trkpt>
            <trkpt lon="101.500945" lat="12.766825">
                <ele>46.280640</ele>
                <time>2006-09-23T06:45:35Z</time>
            </trkpt>
            <trkpt lon="101.500781" lat="12.766539">
                <ele>43.396606</ele>
                <time>2006-09-23T06:45:55Z</time>
            </trkpt>
            <trkpt lon="101.500108" lat="12.766475">
                <ele>43.877319</ele>
                <time>2006-09-23T06:46:16Z</time>
            </trkpt>
            <trkpt lon="101.498353" lat="12.766379">
                <ele>43.877319</ele>
                <time>2006-09-23T06:46:58Z</time>
            </trkpt>
            <trkpt lon="101.498123" lat="12.766359">
                <ele>44.358032</ele>
                <time>2006-09-23T06:47:03Z</time>
            </trkpt>
            <trkpt lon="101.497394" lat="12.766138">
                <ele>49.164551</ele>
                <time>2006-09-23T06:47:22Z</time>
            </trkpt>
            <trkpt lon="101.497274" lat="12.766168">
                <ele>49.645264</ele>
                <time>2006-09-23T06:47:25Z</time>
            </trkpt>
            <trkpt lon="101.496753" lat="12.766473">
                <ele>52.529175</ele>
                <time>2006-09-23T06:47:40Z</time>
            </trkpt>
            <trkpt lon="101.496224" lat="12.766752">
                <ele>54.932373</ele>
                <time>2006-09-23T06:47:56Z</time>
            </trkpt>
            <trkpt lon="101.495887" lat="12.766876">
                <ele>58.777710</ele>
                <time>2006-09-23T06:48:10Z</time>
            </trkpt>
            <trkpt lon="101.495398" lat="12.767073">
                <ele>61.181030</ele>
                <time>2006-09-23T06:48:30Z</time>
            </trkpt>
            <trkpt lon="101.495021" lat="12.767211">
                <ele>65.987671</ele>
                <time>2006-09-23T06:48:49Z</time>
            </trkpt>
            <trkpt lon="101.494971" lat="12.767234">
                <ele>66.468262</ele>
                <time>2006-09-23T06:48:53Z</time>
            </trkpt>
            <trkpt lon="101.494971" lat="12.767264">
                <ele>67.910278</ele>
                <time>2006-09-23T06:49:07Z</time>
            </trkpt>
            <trkpt lon="101.494975" lat="12.767266">
                <ele>67.910278</ele>
                <time>2006-09-23T06:49:26Z</time>
            </trkpt>
            <trkpt lon="101.495010" lat="12.767343">
                <ele>67.910278</ele>
                <time>2006-09-23T06:49:32Z</time>
            </trkpt>
            <trkpt lon="101.495132" lat="12.767538">
                <ele>68.390869</ele>
                <time>2006-09-23T06:49:47Z</time>
            </trkpt>
            <trkpt lon="101.495122" lat="12.767516">
                <ele>67.429688</ele>
                <time>2006-09-23T06:49:56Z</time>
            </trkpt>
            <trkpt lon="101.495057" lat="12.767421">
                <ele>66.948975</ele>
                <time>2006-09-23T06:50:01Z</time>
            </trkpt>
            <trkpt lon="101.494701" lat="12.767009">
                <ele>68.390869</ele>
                <time>2006-09-23T06:50:17Z</time>
            </trkpt>
            <trkpt lon="101.494456" lat="12.766999">
                <ele>69.352295</ele>
                <time>2006-09-23T06:50:27Z</time>
            </trkpt>
            <trkpt lon="101.494130" lat="12.767261">
                <ele>69.352295</ele>
                <time>2006-09-23T06:50:44Z</time>
            </trkpt>
            <trkpt lon="101.493745" lat="12.767587">
                <ele>70.313477</ele>
                <time>2006-09-23T06:51:03Z</time>
            </trkpt>
            <trkpt lon="101.493700" lat="12.767617">
                <ele>71.274902</ele>
                <time>2006-09-23T06:51:11Z</time>
            </trkpt>
            <trkpt lon="101.493712" lat="12.767620">
                <ele>70.794189</ele>
                <time>2006-09-23T06:51:31Z</time>
            </trkpt>
            <trkpt lon="101.493666" lat="12.767620">
                <ele>73.197632</ele>
                <time>2006-09-23T06:53:34Z</time>
            </trkpt>
            <trkpt lon="101.493549" lat="12.767624">
                <ele>72.236206</ele>
                <time>2006-09-23T06:53:38Z</time>
            </trkpt>
            <trkpt lon="101.492674" lat="12.767801">
                <ele>66.948975</ele>
                <time>2006-09-23T06:53:54Z</time>
            </trkpt>
            <trkpt lon="101.491725" lat="12.767942">
                <ele>60.219727</ele>
                <time>2006-09-23T06:54:10Z</time>
            </trkpt>
            <trkpt lon="101.490489" lat="12.767920">
                <ele>53.009766</ele>
                <time>2006-09-23T06:54:38Z</time>
            </trkpt>
            <trkpt lon="101.489884" lat="12.767913">
                <ele>49.645264</ele>
                <time>2006-09-23T06:54:49Z</time>
            </trkpt>
            <trkpt lon="101.488773" lat="12.768079">
                <ele>43.396606</ele>
                <time>2006-09-23T06:55:07Z</time>
            </trkpt>
            <trkpt lon="101.487525" lat="12.768206">
                <ele>31.860718</ele>
                <time>2006-09-23T06:55:23Z</time>
            </trkpt>
            <trkpt lon="101.487089" lat="12.768309">
                <ele>29.938110</ele>
                <time>2006-09-23T06:55:29Z</time>
            </trkpt>
            <trkpt lon="101.486420" lat="12.768604">
                <ele>27.054321</ele>
                <time>2006-09-23T06:55:40Z</time>
            </trkpt>
            <trkpt lon="101.485341" lat="12.769368">
                <ele>24.170288</ele>
                <time>2006-09-23T06:56:02Z</time>
            </trkpt>
            <trkpt lon="101.484998" lat="12.769625">
                <ele>24.651001</ele>
                <time>2006-09-23T06:56:12Z</time>
            </trkpt>
            <trkpt lon="101.484921" lat="12.769663">
                <ele>24.651001</ele>
                <time>2006-09-23T06:56:14Z</time>
            </trkpt>
            <trkpt lon="101.484392" lat="12.769659">
                <ele>25.612305</ele>
                <time>2006-09-23T06:56:28Z</time>
            </trkpt>
            <trkpt lon="101.483764" lat="12.769503">
                <ele>28.496216</ele>
                <time>2006-09-23T06:56:48Z</time>
            </trkpt>
            <trkpt lon="101.483235" lat="12.769356">
                <ele>30.418823</ele>
                <time>2006-09-23T06:57:07Z</time>
            </trkpt>
            <trkpt lon="101.482753" lat="12.769215">
                <ele>32.341553</ele>
                <time>2006-09-23T06:57:25Z</time>
            </trkpt>
            <trkpt lon="101.482130" lat="12.769065">
                <ele>28.976929</ele>
                <time>2006-09-23T06:57:40Z</time>
            </trkpt>
            <trkpt lon="101.481044" lat="12.768792">
                <ele>26.573608</ele>
                <time>2006-09-23T06:57:57Z</time>
            </trkpt>
            <trkpt lon="101.479528" lat="12.768324">
                <ele>24.651001</ele>
                <time>2006-09-23T06:58:21Z</time>
            </trkpt>
            <trkpt lon="101.479437" lat="12.768405">
                <ele>25.131714</ele>
                <time>2006-09-23T06:58:26Z</time>
            </trkpt>
            <trkpt lon="101.479295" lat="12.768897">
                <ele>21.286377</ele>
                <time>2006-09-23T06:58:39Z</time>
            </trkpt>
            <trkpt lon="101.479274" lat="12.768982">
                <ele>21.286377</ele>
                <time>2006-09-23T06:58:41Z</time>
            </trkpt>
            <trkpt lon="101.479203" lat="12.769205">
                <ele>21.766968</ele>
                <time>2006-09-23T06:58:46Z</time>
            </trkpt>
            <trkpt lon="101.479154" lat="12.769337">
                <ele>21.766968</ele>
                <time>2006-09-23T06:58:49Z</time>
            </trkpt>
            <trkpt lon="101.478693" lat="12.769270">
                <ele>23.208984</ele>
                <time>2006-09-23T06:58:59Z</time>
            </trkpt>
            <trkpt lon="101.478046" lat="12.769100">
                <ele>22.247559</ele>
                <time>2006-09-23T06:59:12Z</time>
            </trkpt>
            <trkpt lon="101.478020" lat="12.769002">
                <ele>22.728271</ele>
                <time>2006-09-23T06:59:16Z</time>
            </trkpt>
            <trkpt lon="101.478113" lat="12.768537">
                <ele>21.286377</ele>
                <time>2006-09-23T06:59:30Z</time>
            </trkpt>
            <trkpt lon="101.478098" lat="12.768498">
                <ele>24.170288</ele>
                <time>2006-09-23T06:59:43Z</time>
            </trkpt>
            <trkpt lon="101.478086" lat="12.768509">
                <ele>30.899536</ele>
                <time>2006-09-23T07:00:47Z</time>
            </trkpt>
            <trkpt lon="101.478123" lat="12.768499">
                <ele>27.054321</ele>
                <time>2006-09-23T07:09:37Z</time>
            </trkpt>
            <trkpt lon="101.478210" lat="12.768378">
                <ele>27.054321</ele>
                <time>2006-09-23T07:09:42Z</time>
            </trkpt>
            <trkpt lon="101.478463" lat="12.767470">
                <ele>26.092896</ele>
                <time>2006-09-23T07:09:58Z</time>
            </trkpt>
            <trkpt lon="101.478911" lat="12.766164">
                <ele>24.170288</ele>
                <time>2006-09-23T07:10:19Z</time>
            </trkpt>
            <trkpt lon="101.478988" lat="12.765932">
                <ele>23.208984</ele>
                <time>2006-09-23T07:10:24Z</time>
            </trkpt>
            <trkpt lon="101.478855" lat="12.765851">
                <ele>23.208984</ele>
                <time>2006-09-23T07:10:31Z</time>
            </trkpt>
            <trkpt lon="101.478803" lat="12.765826">
                <ele>23.208984</ele>
                <time>2006-09-23T07:10:35Z</time>
            </trkpt>
            <trkpt lon="101.478726" lat="12.765800">
                <ele>23.208984</ele>
                <time>2006-09-23T07:10:40Z</time>
            </trkpt>
            <trkpt lon="101.478600" lat="12.765699">
                <ele>23.689575</ele>
                <time>2006-09-23T07:10:53Z</time>
            </trkpt>
            <trkpt lon="101.478561" lat="12.765710">
                <ele>24.651001</ele>
                <time>2006-09-23T07:11:04Z</time>
            </trkpt>
            <trkpt lon="101.478558" lat="12.765687">
                <ele>25.612305</ele>
                <time>2006-09-23T07:12:20Z</time>
            </trkpt>
            <trkpt lon="101.478354" lat="12.765643">
                <ele>27.054321</ele>
                <time>2006-09-23T07:12:34Z</time>
            </trkpt>
            <trkpt lon="101.478018" lat="12.765566">
                <ele>28.015503</ele>
                <time>2006-09-23T07:12:51Z</time>
            </trkpt>
            <trkpt lon="101.477574" lat="12.765460">
                <ele>30.418823</ele>
                <time>2006-09-23T07:13:09Z</time>
            </trkpt>
            <trkpt lon="101.477196" lat="12.765350">
                <ele>33.302856</ele>
                <time>2006-09-23T07:13:26Z</time>
            </trkpt>
            <trkpt lon="101.476860" lat="12.765369">
                <ele>34.744873</ele>
                <time>2006-09-23T07:13:41Z</time>
            </trkpt>
            <trkpt lon="101.476580" lat="12.765322">
                <ele>37.628662</ele>
                <time>2006-09-23T07:13:58Z</time>
            </trkpt>
            <trkpt lon="101.476330" lat="12.765263">
                <ele>39.551270</ele>
                <time>2006-09-23T07:14:15Z</time>
            </trkpt>
            <trkpt lon="101.476070" lat="12.765194">
                <ele>40.032104</ele>
                <time>2006-09-23T07:14:28Z</time>
            </trkpt>
            <trkpt lon="101.475688" lat="12.765106">
                <ele>39.551270</ele>
                <time>2006-09-23T07:14:43Z</time>
            </trkpt>
            <trkpt lon="101.475564" lat="12.765042">
                <ele>40.032104</ele>
                <time>2006-09-23T07:14:52Z</time>
            </trkpt>
            <trkpt lon="101.475485" lat="12.764777">
                <ele>38.590088</ele>
                <time>2006-09-23T07:15:09Z</time>
            </trkpt>
            <trkpt lon="101.475511" lat="12.764297">
                <ele>36.186768</ele>
                <time>2006-09-23T07:15:28Z</time>
            </trkpt>
            <trkpt lon="101.475636" lat="12.763880">
                <ele>30.899536</ele>
                <time>2006-09-23T07:15:47Z</time>
            </trkpt>
            <trkpt lon="101.475776" lat="12.763497">
                <ele>32.822266</ele>
                <time>2006-09-23T07:16:06Z</time>
            </trkpt>
            <trkpt lon="101.475918" lat="12.763008">
                <ele>33.783447</ele>
                <time>2006-09-23T07:16:27Z</time>
            </trkpt>
            <trkpt lon="101.475474" lat="12.762871">
                <ele>35.225464</ele>
                <time>2006-09-23T07:16:42Z</time>
            </trkpt>
            <trkpt lon="101.474603" lat="12.762610">
                <ele>35.706055</ele>
                <time>2006-09-23T07:17:01Z</time>
            </trkpt>
            <trkpt lon="101.473762" lat="12.762310">
                <ele>31.860718</ele>
                <time>2006-09-23T07:17:17Z</time>
            </trkpt>
            <trkpt lon="101.473545" lat="12.762232">
                <ele>30.418823</ele>
                <time>2006-09-23T07:17:22Z</time>
            </trkpt>
            <trkpt lon="101.473542" lat="12.762055">
                <ele>28.976929</ele>
                <time>2006-09-23T07:17:26Z</time>
            </trkpt>
            <trkpt lon="101.473690" lat="12.761384">
                <ele>26.092896</ele>
                <time>2006-09-23T07:17:41Z</time>
            </trkpt>
            <trkpt lon="101.473775" lat="12.760947">
                <ele>25.131714</ele>
                <time>2006-09-23T07:17:55Z</time>
            </trkpt>
            <trkpt lon="101.473849" lat="12.760597">
                <ele>24.651001</ele>
                <time>2006-09-23T07:18:08Z</time>
            </trkpt>
            <trkpt lon="101.473988" lat="12.760020">
                <ele>23.208984</ele>
                <time>2006-09-23T07:18:23Z</time>
            </trkpt>
            <trkpt lon="101.474153" lat="12.759358">
                <ele>22.247559</ele>
                <time>2006-09-23T07:18:40Z</time>
            </trkpt>
            <trkpt lon="101.474252" lat="12.758996">
                <ele>21.766968</ele>
                <time>2006-09-23T07:18:49Z</time>
            </trkpt>
            <trkpt lon="101.474480" lat="12.758931">
                <ele>21.766968</ele>
                <time>2006-09-23T07:18:55Z</time>
            </trkpt>
            <trkpt lon="101.474885" lat="12.759043">
                <ele>22.728271</ele>
                <time>2006-09-23T07:19:07Z</time>
            </trkpt>
            <trkpt lon="101.475687" lat="12.759242">
                <ele>20.805664</ele>
                <time>2006-09-23T07:19:28Z</time>
            </trkpt>
            <trkpt lon="101.476147" lat="12.759376">
                <ele>25.131714</ele>
                <time>2006-09-23T07:19:43Z</time>
            </trkpt>
            <trkpt lon="101.476621" lat="12.759507">
                <ele>28.976929</ele>
                <time>2006-09-23T07:20:03Z</time>
            </trkpt>
            <trkpt lon="101.476986" lat="12.759613">
                <ele>31.860718</ele>
                <time>2006-09-23T07:20:20Z</time>
            </trkpt>
            <trkpt lon="101.477366" lat="12.759688">
                <ele>31.380127</ele>
                <time>2006-09-23T07:20:35Z</time>
            </trkpt>
            <trkpt lon="101.478164" lat="12.758593">
                <ele>38.590088</ele>
                <time>2006-09-23T07:21:40Z</time>
            </trkpt>
            <trkpt lon="101.478264" lat="12.758105">
                <ele>43.877319</ele>
                <time>2006-09-23T07:21:59Z</time>
            </trkpt>
            <trkpt lon="101.478524" lat="12.756856">
                <ele>41.473999</ele>
                <time>2006-09-23T07:22:28Z</time>
            </trkpt>
            <trkpt lon="101.477626" lat="12.756424">
                <ele>39.551270</ele>
                <time>2006-09-23T07:22:45Z</time>
            </trkpt>
            <trkpt lon="101.476106" lat="12.756042">
                <ele>29.938110</ele>
                <time>2006-09-23T07:23:09Z</time>
            </trkpt>
            <trkpt lon="101.475092" lat="12.755747">
                <ele>28.496216</ele>
                <time>2006-09-23T07:23:28Z</time>
            </trkpt>
            <trkpt lon="101.474649" lat="12.755630">
                <ele>27.054321</ele>
                <time>2006-09-23T07:23:38Z</time>
            </trkpt>
            <trkpt lon="101.474547" lat="12.755618">
                <ele>26.573608</ele>
                <time>2006-09-23T07:23:40Z</time>
            </trkpt>
            <trkpt lon="101.473550" lat="12.755374">
                <ele>27.054321</ele>
                <time>2006-09-23T07:24:00Z</time>
            </trkpt>
            <trkpt lon="101.473029" lat="12.755253">
                <ele>28.976929</ele>
                <time>2006-09-23T07:24:11Z</time>
            </trkpt>
            <trkpt lon="101.472852" lat="12.755198">
                <ele>28.496216</ele>
                <time>2006-09-23T07:24:15Z</time>
            </trkpt>
            <trkpt lon="101.471953" lat="12.754986">
                <ele>28.496216</ele>
                <time>2006-09-23T07:24:33Z</time>
            </trkpt>
            <trkpt lon="101.470704" lat="12.754647">
                <ele>29.938110</ele>
                <time>2006-09-23T07:24:58Z</time>
            </trkpt>
            <trkpt lon="101.470422" lat="12.754572">
                <ele>31.380127</ele>
                <time>2006-09-23T07:25:05Z</time>
            </trkpt>
            <trkpt lon="101.470557" lat="12.754004">
                <ele>29.457520</ele>
                <time>2006-09-23T07:25:21Z</time>
            </trkpt>
            <trkpt lon="101.470715" lat="12.753608">
                <ele>28.976929</ele>
                <time>2006-09-23T07:25:30Z</time>
            </trkpt>
            <trkpt lon="101.470818" lat="12.753206">
                <ele>26.573608</ele>
                <time>2006-09-23T07:25:38Z</time>
            </trkpt>
            <trkpt lon="101.471001" lat="12.752437">
                <ele>23.689575</ele>
                <time>2006-09-23T07:25:52Z</time>
            </trkpt>
            <trkpt lon="101.471366" lat="12.751351">
                <ele>20.324951</ele>
                <time>2006-09-23T07:26:13Z</time>
            </trkpt>
            <trkpt lon="101.471433" lat="12.750982">
                <ele>18.883057</ele>
                <time>2006-09-23T07:26:25Z</time>
            </trkpt>
            <trkpt lon="101.471576" lat="12.750556">
                <ele>20.324951</ele>
                <time>2006-09-23T07:26:38Z</time>
            </trkpt>
            <trkpt lon="101.471643" lat="12.750309">
                <ele>20.805664</ele>
                <time>2006-09-23T07:26:50Z</time>
            </trkpt>
            <trkpt lon="101.471654" lat="12.750235">
                <ele>21.766968</ele>
                <time>2006-09-23T07:27:03Z</time>
            </trkpt>
            <trkpt lon="101.471718" lat="12.750136">
                <ele>22.728271</ele>
                <time>2006-09-23T07:27:15Z</time>
            </trkpt>
            <trkpt lon="101.471761" lat="12.750150">
                <ele>24.170288</ele>
                <time>2006-09-23T07:29:56Z</time>
            </trkpt>
            <trkpt lon="101.472041" lat="12.750222">
                <ele>24.651001</ele>
                <time>2006-09-23T07:30:10Z</time>
            </trkpt>
            <trkpt lon="101.472262" lat="12.750258">
                <ele>24.651001</ele>
                <time>2006-09-23T07:30:25Z</time>
            </trkpt>
            <trkpt lon="101.472270" lat="12.750263">
                <ele>22.728271</ele>
                <time>2006-09-23T07:30:33Z</time>
            </trkpt>
            <trkpt lon="101.472706" lat="12.750388">
                <ele>20.805664</ele>
                <time>2006-09-23T07:30:51Z</time>
            </trkpt>
            <trkpt lon="101.472945" lat="12.750468">
                <ele>21.286377</ele>
                <time>2006-09-23T07:31:00Z</time>
            </trkpt>
            <trkpt lon="101.473012" lat="12.750574">
                <ele>22.247559</ele>
                <time>2006-09-23T07:31:12Z</time>
            </trkpt>
            <trkpt lon="101.473037" lat="12.750593">
                <ele>25.131714</ele>
                <time>2006-09-23T07:31:40Z</time>
            </trkpt>
            <trkpt lon="101.473041" lat="12.750605">
                <ele>24.651001</ele>
                <time>2006-09-23T07:33:03Z</time>
            </trkpt>
            <trkpt lon="101.473030" lat="12.750562">
                <ele>24.170288</ele>
                <time>2006-09-23T07:33:12Z</time>
            </trkpt>
            <trkpt lon="101.473000" lat="12.750506">
                <ele>24.170288</ele>
                <time>2006-09-23T07:33:17Z</time>
            </trkpt>
            <trkpt lon="101.472746" lat="12.750408">
                <ele>26.092896</ele>
                <time>2006-09-23T07:33:32Z</time>
            </trkpt>
            <trkpt lon="101.472423" lat="12.750325">
                <ele>25.612305</ele>
                <time>2006-09-23T07:33:46Z</time>
            </trkpt>
            <trkpt lon="101.472068" lat="12.750239">
                <ele>26.573608</ele>
                <time>2006-09-23T07:34:02Z</time>
            </trkpt>
            <trkpt lon="101.471941" lat="12.750198">
                <ele>25.612305</ele>
                <time>2006-09-23T07:34:12Z</time>
            </trkpt>
            <trkpt lon="101.471769" lat="12.750181">
                <ele>25.131714</ele>
                <time>2006-09-23T07:34:24Z</time>
            </trkpt>
            <trkpt lon="101.471706" lat="12.750209">
                <ele>23.689575</ele>
                <time>2006-09-23T07:34:30Z</time>
            </trkpt>
            <trkpt lon="101.471682" lat="12.750251">
                <ele>24.651001</ele>
                <time>2006-09-23T07:34:44Z</time>
            </trkpt>
            <trkpt lon="101.471667" lat="12.750247">
                <ele>23.689575</ele>
                <time>2006-09-23T07:34:48Z</time>
            </trkpt>
            <trkpt lon="101.471438" lat="12.750218">
                <ele>23.689575</ele>
                <time>2006-09-23T07:35:03Z</time>
            </trkpt>
            <trkpt lon="101.471394" lat="12.750138">
                <ele>23.208984</ele>
                <time>2006-09-23T07:35:08Z</time>
            </trkpt>
            <trkpt lon="101.471298" lat="12.749803">
                <ele>16.479736</ele>
                <time>2006-09-23T07:35:28Z</time>
            </trkpt>
            <trkpt lon="101.471232" lat="12.749725">
                <ele>18.402344</ele>
                <time>2006-09-23T07:35:34Z</time>
            </trkpt>
            <trkpt lon="101.471222" lat="12.749704">
                <ele>19.844360</ele>
                <time>2006-09-23T07:35:47Z</time>
            </trkpt>
            <trkpt lon="101.471233" lat="12.749712">
                <ele>20.324951</ele>
                <time>2006-09-23T07:35:49Z</time>
            </trkpt>
            <trkpt lon="101.471291" lat="12.749800">
                <ele>18.883057</ele>
                <time>2006-09-23T07:35:57Z</time>
            </trkpt>
            <trkpt lon="101.471407" lat="12.750102">
                <ele>25.131714</ele>
                <time>2006-09-23T07:36:15Z</time>
            </trkpt>
            <trkpt lon="101.471581" lat="12.750257">
                <ele>27.054321</ele>
                <time>2006-09-23T07:36:29Z</time>
            </trkpt>
            <trkpt lon="101.471615" lat="12.750288">
                <ele>24.651001</ele>
                <time>2006-09-23T07:36:41Z</time>
            </trkpt>
            <trkpt lon="101.471626" lat="12.750335">
                <ele>24.170288</ele>
                <time>2006-09-23T07:36:45Z</time>
            </trkpt>
            <trkpt lon="101.471612" lat="12.750397">
                <ele>24.651001</ele>
                <time>2006-09-23T07:36:50Z</time>
            </trkpt>
            <trkpt lon="101.471531" lat="12.750697">
                <ele>24.170288</ele>
                <time>2006-09-23T07:37:05Z</time>
            </trkpt>
            <trkpt lon="101.471439" lat="12.751034">
                <ele>24.651001</ele>
                <time>2006-09-23T07:37:19Z</time>
            </trkpt>
            <trkpt lon="101.471366" lat="12.751399">
                <ele>23.208984</ele>
                <time>2006-09-23T07:37:36Z</time>
            </trkpt>
            <trkpt lon="101.471210" lat="12.751939">
                <ele>22.728271</ele>
                <time>2006-09-23T07:37:56Z</time>
            </trkpt>
            <trkpt lon="101.471104" lat="12.752286">
                <ele>22.247559</ele>
                <time>2006-09-23T07:38:13Z</time>
            </trkpt>
            <trkpt lon="101.471100" lat="12.752359">
                <ele>22.728271</ele>
                <time>2006-09-23T07:38:19Z</time>
            </trkpt>
            <trkpt lon="101.470975" lat="12.752654">
                <ele>23.208984</ele>
                <time>2006-09-23T07:38:36Z</time>
            </trkpt>
            <trkpt lon="101.470847" lat="12.753244">
                <ele>27.054321</ele>
                <time>2006-09-23T07:38:53Z</time>
            </trkpt>
            <trkpt lon="101.470666" lat="12.753918">
                <ele>27.534912</ele>
                <time>2006-09-23T07:39:10Z</time>
            </trkpt>
            <trkpt lon="101.470443" lat="12.754546">
                <ele>29.457520</ele>
                <time>2006-09-23T07:39:26Z</time>
            </trkpt>
            <trkpt lon="101.470259" lat="12.754526">
                <ele>29.938110</ele>
                <time>2006-09-23T07:39:32Z</time>
            </trkpt>
            <trkpt lon="101.469405" lat="12.754326">
                <ele>29.938110</ele>
                <time>2006-09-23T07:39:49Z</time>
            </trkpt>
            <trkpt lon="101.468276" lat="12.754008">
                <ele>27.534912</ele>
                <time>2006-09-23T07:40:10Z</time>
            </trkpt>
            <trkpt lon="101.467465" lat="12.753803">
                <ele>27.534912</ele>
                <time>2006-09-23T07:40:25Z</time>
            </trkpt>
            <trkpt lon="101.467078" lat="12.753760">
                <ele>27.054321</ele>
                <time>2006-09-23T07:40:32Z</time>
            </trkpt>
            <trkpt lon="101.466533" lat="12.753600">
                <ele>26.573608</ele>
                <time>2006-09-23T07:40:43Z</time>
            </trkpt>
            <trkpt lon="101.465699" lat="12.753353">
                <ele>26.573608</ele>
                <time>2006-09-23T07:41:03Z</time>
            </trkpt>
            <trkpt lon="101.465170" lat="12.753218">
                <ele>30.899536</ele>
                <time>2006-09-23T07:41:21Z</time>
            </trkpt>
            <trkpt lon="101.464823" lat="12.753105">
                <ele>32.822266</ele>
                <time>2006-09-23T07:41:32Z</time>
            </trkpt>
            <trkpt lon="101.464861" lat="12.752761">
                <ele>32.822266</ele>
                <time>2006-09-23T07:41:42Z</time>
            </trkpt>
            <trkpt lon="101.464868" lat="12.752679">
                <ele>32.822266</ele>
                <time>2006-09-23T07:41:44Z</time>
            </trkpt>
            <trkpt lon="101.465649" lat="12.749502">
                <ele>32.822266</ele>
                <time>2006-09-23T07:42:46Z</time>
            </trkpt>
            <trkpt lon="101.465992" lat="12.748446">
                <ele>27.534912</ele>
                <time>2006-09-23T07:43:07Z</time>
            </trkpt>
            <trkpt lon="101.465978" lat="12.748330">
                <ele>27.534912</ele>
                <time>2006-09-23T07:43:11Z</time>
            </trkpt>
            <trkpt lon="101.466015" lat="12.748187">
                <ele>26.573608</ele>
                <time>2006-09-23T07:43:16Z</time>
            </trkpt>
            <trkpt lon="101.466093" lat="12.747890">
                <ele>25.131714</ele>
                <time>2006-09-23T07:43:36Z</time>
            </trkpt>
            <trkpt lon="101.466173" lat="12.747782">
                <ele>37.148071</ele>
                <time>2006-09-23T07:44:34Z</time>
            </trkpt>
            <trkpt lon="101.466191" lat="12.747723">
                <ele>38.109375</ele>
                <time>2006-09-23T07:46:54Z</time>
            </trkpt>
            <trkpt lon="101.466209" lat="12.747739">
                <ele>50.606567</ele>
                <time>2006-09-23T07:48:28Z</time>
            </trkpt>
            <trkpt lon="101.466172" lat="12.747826">
                <ele>50.606567</ele>
                <time>2006-09-23T07:48:54Z</time>
            </trkpt>
            <trkpt lon="101.466175" lat="12.747922">
                <ele>48.683960</ele>
                <time>2006-09-23T07:50:50Z</time>
            </trkpt>
            <trkpt lon="101.466192" lat="12.747972">
                <ele>43.396606</ele>
                <time>2006-09-23T07:52:45Z</time>
            </trkpt>
            <trkpt lon="101.465669" lat="12.749742">
                <ele>30.899536</ele>
                <time>2006-09-23T07:53:46Z</time>
            </trkpt>
            <trkpt lon="101.465421" lat="12.750400">
                <ele>32.341553</ele>
                <time>2006-09-23T07:54:06Z</time>
            </trkpt>
            <trkpt lon="101.464952" lat="12.752169">
                <ele>28.015503</ele>
                <time>2006-09-23T07:55:26Z</time>
            </trkpt>
            <trkpt lon="101.464864" lat="12.752576">
                <ele>28.976929</ele>
                <time>2006-09-23T07:55:39Z</time>
            </trkpt>
            <trkpt lon="101.464321" lat="12.752635">
                <ele>31.380127</ele>
                <time>2006-09-23T07:55:55Z</time>
            </trkpt>
            <trkpt lon="101.463461" lat="12.752504">
                <ele>32.341553</ele>
                <time>2006-09-23T07:56:15Z</time>
            </trkpt>
            <trkpt lon="101.462371" lat="12.752314">
                <ele>34.744873</ele>
                <time>2006-09-23T07:56:39Z</time>
            </trkpt>
            <trkpt lon="101.461345" lat="12.752125">
                <ele>34.744873</ele>
                <time>2006-09-23T07:56:59Z</time>
            </trkpt>
            <trkpt lon="101.460245" lat="12.751910">
                <ele>34.264160</ele>
                <time>2006-09-23T07:57:21Z</time>
            </trkpt>
            <trkpt lon="101.459288" lat="12.751738">
                <ele>33.783447</ele>
                <time>2006-09-23T07:57:41Z</time>
            </trkpt>
            <trkpt lon="101.459235" lat="12.751710">
                <ele>33.302856</ele>
                <time>2006-09-23T07:57:43Z</time>
            </trkpt>
            <trkpt lon="101.459426" lat="12.750870">
                <ele>26.573608</ele>
                <time>2006-09-23T07:58:01Z</time>
            </trkpt>
            <trkpt lon="101.459478" lat="12.749869">
                <ele>26.092896</ele>
                <time>2006-09-23T07:58:17Z</time>
            </trkpt>
            <trkpt lon="101.459499" lat="12.748754">
                <ele>28.015503</ele>
                <time>2006-09-23T07:58:38Z</time>
            </trkpt>
            <trkpt lon="101.459600" lat="12.748211">
                <ele>28.976929</ele>
                <time>2006-09-23T07:58:52Z</time>
            </trkpt>
            <trkpt lon="101.459644" lat="12.747996">
                <ele>28.976929</ele>
                <time>2006-09-23T07:58:57Z</time>
            </trkpt>
            <trkpt lon="101.459662" lat="12.747833">
                <ele>28.496216</ele>
                <time>2006-09-23T07:59:01Z</time>
            </trkpt>
            <trkpt lon="101.459659" lat="12.747532">
                <ele>28.976929</ele>
                <time>2006-09-23T07:59:08Z</time>
            </trkpt>
            <trkpt lon="101.458091" lat="12.746135">
                <ele>29.938110</ele>
                <time>2006-09-23T07:59:52Z</time>
            </trkpt>
            <trkpt lon="101.457855" lat="12.745921">
                <ele>29.938110</ele>
                <time>2006-09-23T07:59:58Z</time>
            </trkpt>
            <trkpt lon="101.457509" lat="12.745698">
                <ele>29.938110</ele>
                <time>2006-09-23T08:00:12Z</time>
            </trkpt>
            <trkpt lon="101.457256" lat="12.745504">
                <ele>31.380127</ele>
                <time>2006-09-23T08:00:22Z</time>
            </trkpt>
            <trkpt lon="101.456959" lat="12.745281">
                <ele>33.783447</ele>
                <time>2006-09-23T08:00:37Z</time>
            </trkpt>
            <trkpt lon="101.456541" lat="12.745224">
                <ele>34.264160</ele>
                <time>2006-09-23T08:01:08Z</time>
            </trkpt>
            <trkpt lon="101.456412" lat="12.745291">
                <ele>36.667480</ele>
                <time>2006-09-23T08:01:25Z</time>
            </trkpt>
            <trkpt lon="101.456181" lat="12.745450">
                <ele>39.070679</ele>
                <time>2006-09-23T08:01:43Z</time>
            </trkpt>
            <trkpt lon="101.455962" lat="12.745192">
                <ele>41.473999</ele>
                <time>2006-09-23T08:02:04Z</time>
            </trkpt>
            <trkpt lon="101.455631" lat="12.745393">
                <ele>37.148071</ele>
                <time>2006-09-23T08:02:26Z</time>
            </trkpt>
            <trkpt lon="101.455756" lat="12.744972">
                <ele>40.032104</ele>
                <time>2006-09-23T08:02:45Z</time>
            </trkpt>
            <trkpt lon="101.455174" lat="12.745657">
                <ele>40.993408</ele>
                <time>2006-09-23T08:03:07Z</time>
            </trkpt>
            <trkpt lon="101.455422" lat="12.745514">
                <ele>41.954712</ele>
                <time>2006-09-23T08:03:15Z</time>
            </trkpt>
            <trkpt lon="101.454146" lat="12.744790">
                <ele>46.280640</ele>
                <time>2006-09-23T08:04:13Z</time>
            </trkpt>
            <trkpt lon="101.454036" lat="12.744351">
                <ele>46.761230</ele>
                <time>2006-09-23T08:04:29Z</time>
            </trkpt>
            <trkpt lon="101.453480" lat="12.744060">
                <ele>46.761230</ele>
                <time>2006-09-23T08:04:32Z</time>
            </trkpt>
            <trkpt lon="101.453535" lat="12.743692">
                <ele>46.280640</ele>
                <time>2006-09-23T08:04:46Z</time>
            </trkpt>
            <trkpt lon="101.453553" lat="12.743621">
                <ele>47.241821</ele>
                <time>2006-09-23T08:04:51Z</time>
            </trkpt>
            <trkpt lon="101.453574" lat="12.743475">
                <ele>46.280640</ele>
                <time>2006-09-23T08:05:08Z</time>
            </trkpt>
            <trkpt lon="101.453492" lat="12.743418">
                <ele>45.799927</ele>
                <time>2006-09-23T08:05:16Z</time>
            </trkpt>
            <trkpt lon="101.453038" lat="12.743458">
                <ele>40.993408</ele>
                <time>2006-09-23T08:05:29Z</time>
            </trkpt>
            <trkpt lon="101.452343" lat="12.743485">
                <ele>37.148071</ele>
                <time>2006-09-23T08:05:43Z</time>
            </trkpt>
            <trkpt lon="101.451351" lat="12.743396">
                <ele>39.070679</ele>
                <time>2006-09-23T08:06:04Z</time>
            </trkpt>
            <trkpt lon="101.451226" lat="12.743407">
                <ele>41.954712</ele>
                <time>2006-09-23T08:06:13Z</time>
            </trkpt>
            <trkpt lon="101.451211" lat="12.743439">
                <ele>40.512817</ele>
                <time>2006-09-23T08:06:19Z</time>
            </trkpt>
            <trkpt lon="101.451653" lat="12.743456">
                <ele>43.396606</ele>
                <time>2006-09-23T08:06:35Z</time>
            </trkpt>
            <trkpt lon="101.452378" lat="12.743467">
                <ele>45.319214</ele>
                <time>2006-09-23T08:06:51Z</time>
            </trkpt>
            <trkpt lon="101.453075" lat="12.743388">
                <ele>44.358032</ele>
                <time>2006-09-23T08:07:09Z</time>
            </trkpt>
            <trkpt lon="101.453097" lat="12.743378">
                <ele>43.877319</ele>
                <time>2006-09-23T08:07:10Z</time>
            </trkpt>
            <trkpt lon="101.453133" lat="12.743173">
                <ele>40.993408</ele>
                <time>2006-09-23T08:07:20Z</time>
            </trkpt>
            <trkpt lon="101.453279" lat="12.742958">
                <ele>39.551270</ele>
                <time>2006-09-23T08:07:31Z</time>
            </trkpt>
            <trkpt lon="101.453135" lat="12.742456">
                <ele>39.070679</ele>
                <time>2006-09-23T08:07:48Z</time>
            </trkpt>
            <trkpt lon="101.452999" lat="12.742339">
                <ele>39.551270</ele>
                <time>2006-09-23T08:08:00Z</time>
            </trkpt>
            <trkpt lon="101.452874" lat="12.742174">
                <ele>46.761230</ele>
                <time>2006-09-23T08:09:37Z</time>
            </trkpt>
            <trkpt lon="101.452469" lat="12.741361">
                <ele>56.855103</ele>
                <time>2006-09-23T08:10:11Z</time>
            </trkpt>
            <trkpt lon="101.452024" lat="12.740756">
                <ele>59.258423</ele>
                <time>2006-09-23T08:10:36Z</time>
            </trkpt>
            <trkpt lon="101.451722" lat="12.740297">
                <ele>60.219727</ele>
                <time>2006-09-23T08:11:01Z</time>
            </trkpt>
            <trkpt lon="101.450850" lat="12.739047">
                <ele>63.584351</ele>
                <time>2006-09-23T08:12:00Z</time>
            </trkpt>
            <trkpt lon="101.450582" lat="12.738632">
                <ele>58.777710</ele>
                <time>2006-09-23T08:12:13Z</time>
            </trkpt>
            <trkpt lon="101.450451" lat="12.738222">
                <ele>53.009766</ele>
                <time>2006-09-23T08:12:26Z</time>
            </trkpt>
            <trkpt lon="101.450323" lat="12.737805">
                <ele>49.645264</ele>
                <time>2006-09-23T08:12:39Z</time>
            </trkpt>
            <trkpt lon="101.450279" lat="12.737569">
                <ele>49.645264</ele>
                <time>2006-09-23T08:12:51Z</time>
            </trkpt>
            <trkpt lon="101.450175" lat="12.737219">
                <ele>50.125977</ele>
                <time>2006-09-23T08:13:11Z</time>
            </trkpt>
            <trkpt lon="101.450011" lat="12.736915">
                <ele>49.645264</ele>
                <time>2006-09-23T08:13:29Z</time>
            </trkpt>
            <trkpt lon="101.449930" lat="12.736654">
                <ele>51.087158</ele>
                <time>2006-09-23T08:13:45Z</time>
            </trkpt>
            <trkpt lon="101.449859" lat="12.736468">
                <ele>52.048584</ele>
                <time>2006-09-23T08:13:58Z</time>
            </trkpt>
            <trkpt lon="101.449801" lat="12.736248">
                <ele>53.490479</ele>
                <time>2006-09-23T08:14:12Z</time>
            </trkpt>
            <trkpt lon="101.449737" lat="12.735991">
                <ele>53.490479</ele>
                <time>2006-09-23T08:14:29Z</time>
            </trkpt>
            <trkpt lon="101.449699" lat="12.735796">
                <ele>53.009766</ele>
                <time>2006-09-23T08:14:45Z</time>
            </trkpt>
            <trkpt lon="101.449636" lat="12.735577">
                <ele>55.413086</ele>
                <time>2006-09-23T08:15:03Z</time>
            </trkpt>
            <trkpt lon="101.449628" lat="12.735564">
                <ele>55.893799</ele>
                <time>2006-09-23T08:15:04Z</time>
            </trkpt>
            <trkpt lon="101.449618" lat="12.735503">
                <ele>57.335815</ele>
                <time>2006-09-23T08:15:09Z</time>
            </trkpt>
            <trkpt lon="101.449616" lat="12.735407">
                <ele>59.258423</ele>
                <time>2006-09-23T08:15:22Z</time>
            </trkpt>
            <trkpt lon="101.449575" lat="12.735296">
                <ele>60.219727</ele>
                <time>2006-09-23T08:15:40Z</time>
            </trkpt>
            <trkpt lon="101.449564" lat="12.735317">
                <ele>66.468262</ele>
                <time>2006-09-23T08:16:38Z</time>
            </trkpt>
            <trkpt lon="101.449566" lat="12.735291">
                <ele>63.584351</ele>
                <time>2006-09-23T08:18:51Z</time>
            </trkpt>
            <trkpt lon="101.449551" lat="12.735180">
                <ele>64.065063</ele>
                <time>2006-09-23T08:19:23Z</time>
            </trkpt>
            <trkpt lon="101.449515" lat="12.735014">
                <ele>63.103638</ele>
                <time>2006-09-23T08:19:33Z</time>
            </trkpt>
            <trkpt lon="101.449500" lat="12.734554">
                <ele>63.103638</ele>
                <time>2006-09-23T08:19:43Z</time>
            </trkpt>
            <trkpt lon="101.449438" lat="12.734299">
                <ele>59.739136</ele>
                <time>2006-09-23T08:19:56Z</time>
            </trkpt>
            <trkpt lon="101.450163" lat="12.734141">
                <ele>60.700317</ele>
                <time>2006-09-23T08:20:27Z</time>
            </trkpt>
            <trkpt lon="101.451286" lat="12.734401">
                <ele>60.700317</ele>
                <time>2006-09-23T08:20:44Z</time>
            </trkpt>
            <trkpt lon="101.452226" lat="12.734796">
                <ele>57.816528</ele>
                <time>2006-09-23T08:20:51Z</time>
            </trkpt>
            <trkpt lon="101.452220" lat="12.734741">
                <ele>57.335815</ele>
                <time>2006-09-23T08:20:54Z</time>
            </trkpt>
            <trkpt lon="101.452568" lat="12.732740">
                <ele>49.164551</ele>
                <time>2006-09-23T08:21:55Z</time>
            </trkpt>
            <trkpt lon="101.452500" lat="12.732597">
                <ele>46.761230</ele>
                <time>2006-09-23T08:22:02Z</time>
            </trkpt>
            <trkpt lon="101.452493" lat="12.732498">
                <ele>44.838623</ele>
                <time>2006-09-23T08:22:06Z</time>
            </trkpt>
            <trkpt lon="101.452553" lat="12.732193">
                <ele>39.070679</ele>
                <time>2006-09-23T08:22:20Z</time>
            </trkpt>
            <trkpt lon="101.452660" lat="12.731966">
                <ele>38.590088</ele>
                <time>2006-09-23T08:22:34Z</time>
            </trkpt>
            <trkpt lon="101.452837" lat="12.731780">
                <ele>40.032104</ele>
                <time>2006-09-23T08:22:48Z</time>
            </trkpt>
            <trkpt lon="101.452820" lat="12.731384">
                <ele>40.512817</ele>
                <time>2006-09-23T08:23:04Z</time>
            </trkpt>
            <trkpt lon="101.452938" lat="12.730828">
                <ele>37.148071</ele>
                <time>2006-09-23T08:23:23Z</time>
            </trkpt>
            <trkpt lon="101.453010" lat="12.730476">
                <ele>37.148071</ele>
                <time>2006-09-23T08:23:40Z</time>
            </trkpt>
            <trkpt lon="101.453018" lat="12.730370">
                <ele>37.148071</ele>
                <time>2006-09-23T08:23:45Z</time>
            </trkpt>
            <trkpt lon="101.452503" lat="12.730178">
                <ele>39.551270</ele>
                <time>2006-09-23T08:24:00Z</time>
            </trkpt>
            <trkpt lon="101.451920" lat="12.730031">
                <ele>38.109375</ele>
                <time>2006-09-23T08:24:11Z</time>
            </trkpt>
            <trkpt lon="101.451732" lat="12.729970">
                <ele>37.148071</ele>
                <time>2006-09-23T08:24:16Z</time>
            </trkpt>
            <trkpt lon="101.451709" lat="12.729870">
                <ele>36.667480</ele>
                <time>2006-09-23T08:24:20Z</time>
            </trkpt>
            <trkpt lon="101.451779" lat="12.729408">
                <ele>36.186768</ele>
                <time>2006-09-23T08:24:35Z</time>
            </trkpt>
            <trkpt lon="101.451782" lat="12.729368">
                <ele>36.186768</ele>
                <time>2006-09-23T08:24:36Z</time>
            </trkpt>
            <trkpt lon="101.451965" lat="12.728884">
                <ele>34.264160</ele>
                <time>2006-09-23T08:24:49Z</time>
            </trkpt>
            <trkpt lon="101.452356" lat="12.728962">
                <ele>32.822266</ele>
                <time>2006-09-23T08:24:58Z</time>
            </trkpt>
            <trkpt lon="101.452987" lat="12.729114">
                <ele>35.706055</ele>
                <time>2006-09-23T08:25:13Z</time>
            </trkpt>
            <trkpt lon="101.453476" lat="12.729189">
                <ele>36.186768</ele>
                <time>2006-09-23T08:25:31Z</time>
            </trkpt>
            <trkpt lon="101.453561" lat="12.728872">
                <ele>36.186768</ele>
                <time>2006-09-23T08:25:44Z</time>
            </trkpt>
            <trkpt lon="101.453602" lat="12.728733">
                <ele>36.667480</ele>
                <time>2006-09-23T08:25:50Z</time>
            </trkpt>
            <trkpt lon="101.453632" lat="12.728553">
                <ele>35.225464</ele>
                <time>2006-09-23T08:25:56Z</time>
            </trkpt>
            <trkpt lon="101.453626" lat="12.728365">
                <ele>33.783447</ele>
                <time>2006-09-23T08:26:07Z</time>
            </trkpt>
            <trkpt lon="101.453648" lat="12.728252">
                <ele>34.264160</ele>
                <time>2006-09-23T08:26:21Z</time>
            </trkpt>
            <trkpt lon="101.453652" lat="12.728245">
                <ele>34.264160</ele>
                <time>2006-09-23T08:26:22Z</time>
            </trkpt>
            <trkpt lon="101.453772" lat="12.727888">
                <ele>31.380127</ele>
                <time>2006-09-23T08:26:37Z</time>
            </trkpt>
            <trkpt lon="101.453931" lat="12.727823">
                <ele>31.380127</ele>
                <time>2006-09-23T08:26:47Z</time>
            </trkpt>
            <trkpt lon="101.454369" lat="12.727922">
                <ele>34.264160</ele>
                <time>2006-09-23T08:27:04Z</time>
            </trkpt>
            <trkpt lon="101.454859" lat="12.728037">
                <ele>35.706055</ele>
                <time>2006-09-23T08:27:22Z</time>
            </trkpt>
            <trkpt lon="101.455225" lat="12.728110">
                <ele>37.628662</ele>
                <time>2006-09-23T08:27:38Z</time>
            </trkpt>
            <trkpt lon="101.455617" lat="12.728215">
                <ele>38.109375</ele>
                <time>2006-09-23T08:27:55Z</time>
            </trkpt>
            <trkpt lon="101.456091" lat="12.728318">
                <ele>37.148071</ele>
                <time>2006-09-23T08:28:11Z</time>
            </trkpt>
            <trkpt lon="101.456577" lat="12.728452">
                <ele>35.225464</ele>
                <time>2006-09-23T08:28:24Z</time>
            </trkpt>
            <trkpt lon="101.456984" lat="12.728546">
                <ele>33.783447</ele>
                <time>2006-09-23T08:28:38Z</time>
            </trkpt>
            <trkpt lon="101.457299" lat="12.728622">
                <ele>33.302856</ele>
                <time>2006-09-23T08:28:57Z</time>
            </trkpt>
            <trkpt lon="101.457341" lat="12.728618">
                <ele>32.341553</ele>
                <time>2006-09-23T08:29:13Z</time>
            </trkpt>
            <trkpt lon="101.457335" lat="12.728599">
                <ele>32.822266</ele>
                <time>2006-09-23T08:29:59Z</time>
            </trkpt>
            <trkpt lon="101.457296" lat="12.728604">
                <ele>32.341553</ele>
                <time>2006-09-23T08:30:05Z</time>
            </trkpt>
            <trkpt lon="101.457030" lat="12.728571">
                <ele>34.744873</ele>
                <time>2006-09-23T08:30:22Z</time>
            </trkpt>
            <trkpt lon="101.456653" lat="12.728465">
                <ele>35.225464</ele>
                <time>2006-09-23T08:30:39Z</time>
            </trkpt>
            <trkpt lon="101.456605" lat="12.728421">
                <ele>35.706055</ele>
                <time>2006-09-23T08:30:51Z</time>
            </trkpt>
            <trkpt lon="101.456527" lat="12.728342">
                <ele>35.225464</ele>
                <time>2006-09-23T08:31:04Z</time>
            </trkpt>
            <trkpt lon="101.456533" lat="12.728295">
                <ele>34.264160</ele>
                <time>2006-09-23T08:31:11Z</time>
            </trkpt>
            <trkpt lon="101.456606" lat="12.727961">
                <ele>33.783447</ele>
                <time>2006-09-23T08:31:27Z</time>
            </trkpt>
            <trkpt lon="101.456704" lat="12.727604">
                <ele>35.225464</ele>
                <time>2006-09-23T08:31:45Z</time>
            </trkpt>
            <trkpt lon="101.456814" lat="12.727239">
                <ele>35.706055</ele>
                <time>2006-09-23T08:32:02Z</time>
            </trkpt>
            <trkpt lon="101.456877" lat="12.727082">
                <ele>35.706055</ele>
                <time>2006-09-23T08:32:10Z</time>
            </trkpt>
            <trkpt lon="101.456920" lat="12.726871">
                <ele>35.706055</ele>
                <time>2006-09-23T08:32:21Z</time>
            </trkpt>
            <trkpt lon="101.456809" lat="12.726827">
                <ele>36.186768</ele>
                <time>2006-09-23T08:32:27Z</time>
            </trkpt>
            <trkpt lon="101.456551" lat="12.726757">
                <ele>36.186768</ele>
                <time>2006-09-23T08:32:35Z</time>
            </trkpt>
            <trkpt lon="101.456540" lat="12.726645">
                <ele>35.706055</ele>
                <time>2006-09-23T08:32:39Z</time>
            </trkpt>
            <trkpt lon="101.456719" lat="12.726039">
                <ele>34.264160</ele>
                <time>2006-09-23T08:32:53Z</time>
            </trkpt>
            <trkpt lon="101.456876" lat="12.725556">
                <ele>31.860718</ele>
                <time>2006-09-23T08:33:05Z</time>
            </trkpt>
            <trkpt lon="101.457011" lat="12.725083">
                <ele>30.899536</ele>
                <time>2006-09-23T08:33:20Z</time>
            </trkpt>
            <trkpt lon="101.457052" lat="12.724951">
                <ele>29.938110</ele>
                <time>2006-09-23T08:33:27Z</time>
            </trkpt>
            <trkpt lon="101.457079" lat="12.724945">
                <ele>30.899536</ele>
                <time>2006-09-23T08:33:38Z</time>
            </trkpt>
            <trkpt lon="101.457079" lat="12.724908">
                <ele>31.860718</ele>
                <time>2006-09-23T08:35:54Z</time>
            </trkpt>
            <trkpt lon="101.457125" lat="12.724677">
                <ele>34.264160</ele>
                <time>2006-09-23T08:36:11Z</time>
            </trkpt>
            <trkpt lon="101.457271" lat="12.724437">
                <ele>35.225464</ele>
                <time>2006-09-23T08:36:26Z</time>
            </trkpt>
            <trkpt lon="101.457484" lat="12.724169">
                <ele>35.225464</ele>
                <time>2006-09-23T08:36:46Z</time>
            </trkpt>
            <trkpt lon="101.457655" lat="12.723977">
                <ele>34.264160</ele>
                <time>2006-09-23T08:37:02Z</time>
            </trkpt>
            <trkpt lon="101.457973" lat="12.723668">
                <ele>33.783447</ele>
                <time>2006-09-23T08:37:19Z</time>
            </trkpt>
            <trkpt lon="101.458543" lat="12.723441">
                <ele>28.015503</ele>
                <time>2006-09-23T08:37:46Z</time>
            </trkpt>
            <trkpt lon="101.458688" lat="12.723158">
                <ele>25.612305</ele>
                <time>2006-09-23T08:37:57Z</time>
            </trkpt>
            <trkpt lon="101.458964" lat="12.722276">
                <ele>22.247559</ele>
                <time>2006-09-23T08:38:17Z</time>
            </trkpt>
            <trkpt lon="101.459254" lat="12.721270">
                <ele>21.286377</ele>
                <time>2006-09-23T08:38:37Z</time>
            </trkpt>
            <trkpt lon="101.459547" lat="12.720255">
                <ele>21.286377</ele>
                <time>2006-09-23T08:38:57Z</time>
            </trkpt>
            <trkpt lon="101.459884" lat="12.719115">
                <ele>21.286377</ele>
                <time>2006-09-23T08:39:19Z</time>
            </trkpt>
            <trkpt lon="101.460004" lat="12.718701">
                <ele>21.286377</ele>
                <time>2006-09-23T08:39:27Z</time>
            </trkpt>
            <trkpt lon="101.460261" lat="12.717753">
                <ele>20.805664</ele>
                <time>2006-09-23T08:39:45Z</time>
            </trkpt>
            <trkpt lon="101.460575" lat="12.716600">
                <ele>20.805664</ele>
                <time>2006-09-23T08:40:07Z</time>
            </trkpt>
            <trkpt lon="101.460944" lat="12.715320">
                <ele>22.247559</ele>
                <time>2006-09-23T08:40:31Z</time>
            </trkpt>
            <trkpt lon="101.461464" lat="12.714747">
                <ele>23.208984</ele>
                <time>2006-09-23T08:40:47Z</time>
            </trkpt>
            <trkpt lon="101.462846" lat="12.713933">
                <ele>28.496216</ele>
                <time>2006-09-23T08:41:26Z</time>
            </trkpt>
            <trkpt lon="101.463913" lat="12.713259">
                <ele>28.976929</ele>
                <time>2006-09-23T08:41:47Z</time>
            </trkpt>
            <trkpt lon="101.464950" lat="12.712386">
                <ele>28.015503</ele>
                <time>2006-09-23T08:42:09Z</time>
            </trkpt>
            <trkpt lon="101.465594" lat="12.711671">
                <ele>25.131714</ele>
                <time>2006-09-23T08:42:25Z</time>
            </trkpt>
            <trkpt lon="101.465779" lat="12.711655">
                <ele>25.131714</ele>
                <time>2006-09-23T08:42:31Z</time>
            </trkpt>
            <trkpt lon="101.466215" lat="12.712239">
                <ele>25.612305</ele>
                <time>2006-09-23T08:42:47Z</time>
            </trkpt>
            <trkpt lon="101.466426" lat="12.712297">
                <ele>25.612305</ele>
                <time>2006-09-23T08:42:52Z</time>
            </trkpt>
            <trkpt lon="101.467477" lat="12.712277">
                <ele>24.170288</ele>
                <time>2006-09-23T08:43:10Z</time>
            </trkpt>
            <trkpt lon="101.467584" lat="12.712309">
                <ele>24.170288</ele>
                <time>2006-09-23T08:43:12Z</time>
            </trkpt>
            <trkpt lon="101.467840" lat="12.712370">
                <ele>24.170288</ele>
                <time>2006-09-23T08:43:17Z</time>
            </trkpt>
            <trkpt lon="101.469351" lat="12.713193">
                <ele>23.208984</ele>
                <time>2006-09-23T08:43:46Z</time>
            </trkpt>
            <trkpt lon="101.469427" lat="12.713290">
                <ele>23.208984</ele>
                <time>2006-09-23T08:43:49Z</time>
            </trkpt>
            <trkpt lon="101.469443" lat="12.713617">
                <ele>23.208984</ele>
                <time>2006-09-23T08:44:00Z</time>
            </trkpt>
            <trkpt lon="101.469384" lat="12.713979">
                <ele>23.208984</ele>
                <time>2006-09-23T08:44:08Z</time>
            </trkpt>
            <trkpt lon="101.469374" lat="12.714079">
                <ele>23.208984</ele>
                <time>2006-09-23T08:44:10Z</time>
            </trkpt>
            <trkpt lon="101.469782" lat="12.716085">
                <ele>20.805664</ele>
                <time>2006-09-23T08:44:48Z</time>
            </trkpt>
            <trkpt lon="101.470009" lat="12.717284">
                <ele>14.557007</ele>
                <time>2006-09-23T08:45:06Z</time>
            </trkpt>
            <trkpt lon="101.470073" lat="12.717776">
                <ele>13.595825</ele>
                <time>2006-09-23T08:45:14Z</time>
            </trkpt>
            <trkpt lon="101.470068" lat="12.717994">
                <ele>14.076416</ele>
                <time>2006-09-23T08:45:18Z</time>
            </trkpt>
            <trkpt lon="101.470068" lat="12.718206">
                <ele>13.115112</ele>
                <time>2006-09-23T08:45:25Z</time>
            </trkpt>
            <trkpt lon="101.469905" lat="12.718770">
                <ele>13.595825</ele>
                <time>2006-09-23T08:45:40Z</time>
            </trkpt>
            <trkpt lon="101.469720" lat="12.719335">
                <ele>15.037720</ele>
                <time>2006-09-23T08:45:53Z</time>
            </trkpt>
            <trkpt lon="101.469693" lat="12.719474">
                <ele>15.037720</ele>
                <time>2006-09-23T08:45:56Z</time>
            </trkpt>
            <trkpt lon="101.470269" lat="12.721626">
                <ele>13.115112</ele>
                <time>2006-09-23T08:46:52Z</time>
            </trkpt>
            <trkpt lon="101.470070" lat="12.721846">
                <ele>20.324951</ele>
                <time>2006-09-23T08:47:07Z</time>
            </trkpt>
            <trkpt lon="101.470003" lat="12.721891">
                <ele>33.302856</ele>
                <time>2006-09-23T08:48:17Z</time>
            </trkpt>
            <trkpt lon="101.470195" lat="12.721515">
                <ele>33.302856</ele>
                <time>2006-09-23T08:48:33Z</time>
            </trkpt>
            <trkpt lon="101.470513" lat="12.721377">
                <ele>27.534912</ele>
                <time>2006-09-23T08:48:47Z</time>
            </trkpt>
            <trkpt lon="101.470898" lat="12.721353">
                <ele>24.170288</ele>
                <time>2006-09-23T08:49:01Z</time>
            </trkpt>
            <trkpt lon="101.471093" lat="12.721353">
                <ele>23.208984</ele>
                <time>2006-09-23T08:49:06Z</time>
            </trkpt>
            <trkpt lon="101.471600" lat="12.721438">
                <ele>22.247559</ele>
                <time>2006-09-23T08:49:17Z</time>
            </trkpt>
            <trkpt lon="101.471781" lat="12.721354">
                <ele>20.805664</ele>
                <time>2006-09-23T08:49:21Z</time>
            </trkpt>
            <trkpt lon="101.472337" lat="12.720775">
                <ele>17.441162</ele>
                <time>2006-09-23T08:49:36Z</time>
            </trkpt>
            <trkpt lon="101.473147" lat="12.720083">
                <ele>15.518433</ele>
                <time>2006-09-23T08:49:55Z</time>
            </trkpt>
            <trkpt lon="101.473464" lat="12.719704">
                <ele>13.595825</ele>
                <time>2006-09-23T08:50:04Z</time>
            </trkpt>
            <trkpt lon="101.473548" lat="12.719443">
                <ele>13.115112</ele>
                <time>2006-09-23T08:50:09Z</time>
            </trkpt>
            <trkpt lon="101.473591" lat="12.719162">
                <ele>13.115112</ele>
                <time>2006-09-23T08:50:14Z</time>
            </trkpt>
            <trkpt lon="101.473906" lat="12.718729">
                <ele>12.634399</ele>
                <time>2006-09-23T08:50:24Z</time>
            </trkpt>
            <trkpt lon="101.474250" lat="12.718105">
                <ele>12.153809</ele>
                <time>2006-09-23T08:50:38Z</time>
            </trkpt>
            <trkpt lon="101.474527" lat="12.718092">
                <ele>12.153809</ele>
                <time>2006-09-23T08:50:45Z</time>
            </trkpt>
            <trkpt lon="101.474596" lat="12.718152">
                <ele>12.153809</ele>
                <time>2006-09-23T08:50:47Z</time>
            </trkpt>
            <trkpt lon="101.474906" lat="12.718133">
                <ele>13.115112</ele>
                <time>2006-09-23T08:50:55Z</time>
            </trkpt>
            <trkpt lon="101.474938" lat="12.718102">
                <ele>13.115112</ele>
                <time>2006-09-23T08:50:56Z</time>
            </trkpt>
            <trkpt lon="101.475005" lat="12.718040">
                <ele>13.595825</ele>
                <time>2006-09-23T08:50:58Z</time>
            </trkpt>
            <trkpt lon="101.475559" lat="12.717552">
                <ele>15.037720</ele>
                <time>2006-09-23T08:51:15Z</time>
            </trkpt>
            <trkpt lon="101.476205" lat="12.716968">
                <ele>14.557007</ele>
                <time>2006-09-23T08:51:33Z</time>
            </trkpt>
            <trkpt lon="101.477165" lat="12.716728">
                <ele>15.999023</ele>
                <time>2006-09-23T08:51:51Z</time>
            </trkpt>
            <trkpt lon="101.477432" lat="12.716654">
                <ele>15.999023</ele>
                <time>2006-09-23T08:51:56Z</time>
            </trkpt>
            <trkpt lon="101.477688" lat="12.716257">
                <ele>15.037720</ele>
                <time>2006-09-23T08:52:05Z</time>
            </trkpt>
            <trkpt lon="101.477860" lat="12.714934">
                <ele>12.634399</ele>
                <time>2006-09-23T08:52:29Z</time>
            </trkpt>
            <trkpt lon="101.478078" lat="12.714739">
                <ele>13.115112</ele>
                <time>2006-09-23T08:52:34Z</time>
            </trkpt>
            <trkpt lon="101.478890" lat="12.714284">
                <ele>12.634399</ele>
                <time>2006-09-23T08:52:52Z</time>
            </trkpt>
            <trkpt lon="101.478927" lat="12.714268">
                <ele>12.634399</ele>
                <time>2006-09-23T08:52:53Z</time>
            </trkpt>
            <trkpt lon="101.479931" lat="12.714429">
                <ele>14.557007</ele>
                <time>2006-09-23T08:53:13Z</time>
            </trkpt>
            <trkpt lon="101.480880" lat="12.714590">
                <ele>15.518433</ele>
                <time>2006-09-23T08:53:31Z</time>
            </trkpt>
            <trkpt lon="101.482227" lat="12.714887">
                <ele>14.557007</ele>
                <time>2006-09-23T08:53:55Z</time>
            </trkpt>
            <trkpt lon="101.483167" lat="12.715175">
                <ele>13.115112</ele>
                <time>2006-09-23T08:54:11Z</time>
            </trkpt>
            <trkpt lon="101.483331" lat="12.715197">
                <ele>13.595825</ele>
                <time>2006-09-23T08:54:14Z</time>
            </trkpt>
            <trkpt lon="101.483437" lat="12.715195">
                <ele>14.076416</ele>
                <time>2006-09-23T08:54:16Z</time>
            </trkpt>
            <trkpt lon="101.483578" lat="12.715175">
                <ele>14.557007</ele>
                <time>2006-09-23T08:54:19Z</time>
            </trkpt>
            <trkpt lon="101.483840" lat="12.715420">
                <ele>14.076416</ele>
                <time>2006-09-23T08:54:28Z</time>
            </trkpt>
            <trkpt lon="101.484437" lat="12.716225">
                <ele>14.076416</ele>
                <time>2006-09-23T08:54:47Z</time>
            </trkpt>
            <trkpt lon="101.485656" lat="12.717755">
                <ele>15.518433</ele>
                <time>2006-09-23T08:55:22Z</time>
            </trkpt>
            <trkpt lon="101.485767" lat="12.717966">
                <ele>14.557007</ele>
                <time>2006-09-23T08:55:26Z</time>
            </trkpt>
            <trkpt lon="101.485912" lat="12.718372">
                <ele>13.595825</ele>
                <time>2006-09-23T08:55:33Z</time>
            </trkpt>
            <trkpt lon="101.485900" lat="12.718626">
                <ele>12.634399</ele>
                <time>2006-09-23T08:55:37Z</time>
            </trkpt>
            <trkpt lon="101.485904" lat="12.718939">
                <ele>12.153809</ele>
                <time>2006-09-23T08:55:42Z</time>
            </trkpt>
            <trkpt lon="101.486007" lat="12.719175">
                <ele>11.673218</ele>
                <time>2006-09-23T08:55:46Z</time>
            </trkpt>
            <trkpt lon="101.486045" lat="12.719292">
                <ele>11.192505</ele>
                <time>2006-09-23T08:55:48Z</time>
            </trkpt>
            <trkpt lon="101.486182" lat="12.720149">
                <ele>11.673218</ele>
                <time>2006-09-23T08:56:04Z</time>
            </trkpt>
            <trkpt lon="101.486198" lat="12.720187">
                <ele>11.673218</ele>
                <time>2006-09-23T08:56:05Z</time>
            </trkpt>
            <trkpt lon="101.486368" lat="12.720223">
                <ele>12.153809</ele>
                <time>2006-09-23T08:56:09Z</time>
            </trkpt>
            <trkpt lon="101.487397" lat="12.720272">
                <ele>13.115112</ele>
                <time>2006-09-23T08:56:27Z</time>
            </trkpt>
            <trkpt lon="101.488424" lat="12.720357">
                <ele>15.037720</ele>
                <time>2006-09-23T08:56:46Z</time>
            </trkpt>
            <trkpt lon="101.488628" lat="12.720314">
                <ele>15.037720</ele>
                <time>2006-09-23T08:56:50Z</time>
            </trkpt>
            <trkpt lon="101.488775" lat="12.720278">
                <ele>15.037720</ele>
                <time>2006-09-23T08:56:53Z</time>
            </trkpt>
            <trkpt lon="101.489042" lat="12.720289">
                <ele>15.037720</ele>
                <time>2006-09-23T08:56:58Z</time>
            </trkpt>
            <trkpt lon="101.489346" lat="12.720285">
                <ele>15.999023</ele>
                <time>2006-09-23T08:57:04Z</time>
            </trkpt>
            <trkpt lon="101.489404" lat="12.720399">
                <ele>15.518433</ele>
                <time>2006-09-23T08:57:08Z</time>
            </trkpt>
            <trkpt lon="101.489316" lat="12.721292">
                <ele>14.557007</ele>
                <time>2006-09-23T08:57:27Z</time>
            </trkpt>
            <trkpt lon="101.489235" lat="12.722312">
                <ele>14.076416</ele>
                <time>2006-09-23T08:57:49Z</time>
            </trkpt>
            <trkpt lon="101.489219" lat="12.722482">
                <ele>14.076416</ele>
                <time>2006-09-23T08:57:54Z</time>
            </trkpt>
            <trkpt lon="101.489159" lat="12.722495">
                <ele>14.076416</ele>
                <time>2006-09-23T08:58:03Z</time>
            </trkpt>
            <trkpt lon="101.489160" lat="12.722480">
                <ele>19.844360</ele>
                <time>2006-09-23T08:59:45Z</time>
            </trkpt>
            <trkpt lon="101.489169" lat="12.722478">
                <ele>16.479736</ele>
                <time>2006-09-23T09:01:40Z</time>
            </trkpt>
            <trkpt lon="101.489156" lat="12.722482">
                <ele>18.883057</ele>
                <time>2006-09-23T09:13:46Z</time>
            </trkpt>
            <trkpt lon="101.489191" lat="12.722460">
                <ele>15.037720</ele>
                <time>2006-09-23T09:14:42Z</time>
            </trkpt>
            <trkpt lon="101.489197" lat="12.722437">
                <ele>15.518433</ele>
                <time>2006-09-23T09:14:54Z</time>
            </trkpt>
            <trkpt lon="101.489207" lat="12.722447">
                <ele>14.557007</ele>
                <time>2006-09-23T09:15:18Z</time>
            </trkpt>
            <trkpt lon="101.489216" lat="12.722525">
                <ele>14.557007</ele>
                <time>2006-09-23T09:15:22Z</time>
            </trkpt>
            <trkpt lon="101.489265" lat="12.722776">
                <ele>14.076416</ele>
                <time>2006-09-23T09:15:34Z</time>
            </trkpt>
            <trkpt lon="101.489266" lat="12.723053">
                <ele>15.037720</ele>
                <time>2006-09-23T09:16:00Z</time>
            </trkpt>
            <trkpt lon="101.489266" lat="12.723424">
                <ele>15.037720</ele>
                <time>2006-09-23T09:16:09Z</time>
            </trkpt>
            <trkpt lon="101.489358" lat="12.723478">
                <ele>15.999023</ele>
                <time>2006-09-23T09:16:15Z</time>
            </trkpt>
            <trkpt lon="101.489412" lat="12.723476">
                <ele>16.479736</ele>
                <time>2006-09-23T09:16:28Z</time>
            </trkpt>
            <trkpt lon="101.489451" lat="12.723472">
                <ele>18.402344</ele>
                <time>2006-09-23T09:16:41Z</time>
            </trkpt>
            <trkpt lon="101.489759" lat="12.723486">
                <ele>18.883057</ele>
                <time>2006-09-23T09:16:54Z</time>
            </trkpt>
            <trkpt lon="101.490420" lat="12.723501">
                <ele>20.324951</ele>
                <time>2006-09-23T09:17:12Z</time>
            </trkpt>
            <trkpt lon="101.491252" lat="12.723643">
                <ele>23.689575</ele>
                <time>2006-09-23T09:17:35Z</time>
            </trkpt>
            <trkpt lon="101.491653" lat="12.723805">
                <ele>23.689575</ele>
                <time>2006-09-23T09:17:47Z</time>
            </trkpt>
            <trkpt lon="101.492465" lat="12.724211">
                <ele>22.728271</ele>
                <time>2006-09-23T09:18:08Z</time>
            </trkpt>
            <trkpt lon="101.492826" lat="12.724427">
                <ele>22.728271</ele>
                <time>2006-09-23T09:18:16Z</time>
            </trkpt>
            <trkpt lon="101.493355" lat="12.724621">
                <ele>20.805664</ele>
                <time>2006-09-23T09:18:26Z</time>
            </trkpt>
            <trkpt lon="101.494395" lat="12.724993">
                <ele>20.805664</ele>
                <time>2006-09-23T09:18:46Z</time>
            </trkpt>
            <trkpt lon="101.495241" lat="12.725656">
                <ele>18.402344</ele>
                <time>2006-09-23T09:19:05Z</time>
            </trkpt>
            <trkpt lon="101.495998" lat="12.726471">
                <ele>15.518433</ele>
                <time>2006-09-23T09:19:22Z</time>
            </trkpt>
            <trkpt lon="101.496049" lat="12.726519">
                <ele>15.518433</ele>
                <time>2006-09-23T09:19:23Z</time>
            </trkpt>
            <trkpt lon="101.496947" lat="12.726918">
                <ele>18.883057</ele>
                <time>2006-09-23T09:19:41Z</time>
            </trkpt>
            <trkpt lon="101.497375" lat="12.727185">
                <ele>22.728271</ele>
                <time>2006-09-23T09:19:56Z</time>
            </trkpt>
            <trkpt lon="101.497677" lat="12.727211">
                <ele>25.612305</ele>
                <time>2006-09-23T09:20:05Z</time>
            </trkpt>
            <trkpt lon="101.498304" lat="12.726789">
                <ele>26.092896</ele>
                <time>2006-09-23T09:20:25Z</time>
            </trkpt>
            <trkpt lon="101.499068" lat="12.726245">
                <ele>27.534912</ele>
                <time>2006-09-23T09:20:48Z</time>
            </trkpt>
            <trkpt lon="101.500072" lat="12.725533">
                <ele>26.092896</ele>
                <time>2006-09-23T09:21:15Z</time>
            </trkpt>
            <trkpt lon="101.500954" lat="12.725053">
                <ele>27.534912</ele>
                <time>2006-09-23T09:21:39Z</time>
            </trkpt>
            <trkpt lon="101.501960" lat="12.724398">
                <ele>28.015503</ele>
                <time>2006-09-23T09:22:00Z</time>
            </trkpt>
            <trkpt lon="101.502884" lat="12.723931">
                <ele>25.131714</ele>
                <time>2006-09-23T09:22:17Z</time>
            </trkpt>
            <trkpt lon="101.503601" lat="12.723727">
                <ele>25.131714</ele>
                <time>2006-09-23T09:22:29Z</time>
            </trkpt>
            <trkpt lon="101.503706" lat="12.723703">
                <ele>25.612305</ele>
                <time>2006-09-23T09:22:31Z</time>
            </trkpt>
            <trkpt lon="101.503916" lat="12.723694">
                <ele>25.612305</ele>
                <time>2006-09-23T09:22:35Z</time>
            </trkpt>
            <trkpt lon="101.504666" lat="12.723627">
                <ele>25.612305</ele>
                <time>2006-09-23T09:22:50Z</time>
            </trkpt>
            <trkpt lon="101.505821" lat="12.723582">
                <ele>23.689575</ele>
                <time>2006-09-23T09:23:11Z</time>
            </trkpt>
            <trkpt lon="101.506364" lat="12.723428">
                <ele>23.208984</ele>
                <time>2006-09-23T09:23:23Z</time>
            </trkpt>
            <trkpt lon="101.506657" lat="12.723113">
                <ele>20.805664</ele>
                <time>2006-09-23T09:23:33Z</time>
            </trkpt>
            <trkpt lon="101.507535" lat="12.721933">
                <ele>20.805664</ele>
                <time>2006-09-23T09:23:51Z</time>
            </trkpt>
            <trkpt lon="101.507547" lat="12.721696">
                <ele>20.805664</ele>
                <time>2006-09-23T09:23:55Z</time>
            </trkpt>
            <trkpt lon="101.507586" lat="12.721558">
                <ele>20.324951</ele>
                <time>2006-09-23T09:23:58Z</time>
            </trkpt>
            <trkpt lon="101.508098" lat="12.720928">
                <ele>16.479736</ele>
                <time>2006-09-23T09:24:14Z</time>
            </trkpt>
            <trkpt lon="101.508737" lat="12.720425">
                <ele>15.999023</ele>
                <time>2006-09-23T09:24:29Z</time>
            </trkpt>
            <trkpt lon="101.509480" lat="12.719824">
                <ele>17.921753</ele>
                <time>2006-09-23T09:24:50Z</time>
            </trkpt>
            <trkpt lon="101.510538" lat="12.719089">
                <ele>13.115112</ele>
                <time>2006-09-23T09:25:37Z</time>
            </trkpt>
            <trkpt lon="101.511193" lat="12.718723">
                <ele>15.037720</ele>
                <time>2006-09-23T09:25:56Z</time>
            </trkpt>
            <trkpt lon="101.511210" lat="12.718688">
                <ele>15.999023</ele>
                <time>2006-09-23T09:26:01Z</time>
            </trkpt>
            <trkpt lon="101.511131" lat="12.718728">
                <ele>16.479736</ele>
                <time>2006-09-23T09:26:04Z</time>
            </trkpt>
            <trkpt lon="101.511696" lat="12.718882">
                <ele>17.921753</ele>
                <time>2006-09-23T09:26:18Z</time>
            </trkpt>
            <trkpt lon="101.511769" lat="12.719236">
                <ele>19.844360</ele>
                <time>2006-09-23T09:26:27Z</time>
            </trkpt>
            <trkpt lon="101.511959" lat="12.720337">
                <ele>20.324951</ele>
                <time>2006-09-23T09:26:48Z</time>
            </trkpt>
            <trkpt lon="101.512596" lat="12.721524">
                <ele>20.805664</ele>
                <time>2006-09-23T09:27:13Z</time>
            </trkpt>
            <trkpt lon="101.513338" lat="12.722413">
                <ele>25.131714</ele>
                <time>2006-09-23T09:27:35Z</time>
            </trkpt>
            <trkpt lon="101.513806" lat="12.722943">
                <ele>27.054321</ele>
                <time>2006-09-23T09:27:51Z</time>
            </trkpt>
            <trkpt lon="101.514686" lat="12.723615">
                <ele>27.534912</ele>
                <time>2006-09-23T09:28:14Z</time>
            </trkpt>
            <trkpt lon="101.515506" lat="12.724297">
                <ele>25.612305</ele>
                <time>2006-09-23T09:28:31Z</time>
            </trkpt>
            <trkpt lon="101.516130" lat="12.724999">
                <ele>26.092896</ele>
                <time>2006-09-23T09:28:48Z</time>
            </trkpt>
            <trkpt lon="101.516132" lat="12.725121">
                <ele>26.573608</ele>
                <time>2006-09-23T09:28:51Z</time>
            </trkpt>
            <trkpt lon="101.515342" lat="12.725788">
                <ele>24.170288</ele>
                <time>2006-09-23T09:29:10Z</time>
            </trkpt>
            <trkpt lon="101.514237" lat="12.726489">
                <ele>27.054321</ele>
                <time>2006-09-23T09:29:31Z</time>
            </trkpt>
            <trkpt lon="101.513855" lat="12.726761">
                <ele>27.054321</ele>
                <time>2006-09-23T09:29:38Z</time>
            </trkpt>
            <trkpt lon="101.512275" lat="12.728874">
                <ele>22.728271</ele>
                <time>2006-09-23T09:30:22Z</time>
            </trkpt>
            <trkpt lon="101.512161" lat="12.729114">
                <ele>24.651001</ele>
                <time>2006-09-23T09:30:37Z</time>
            </trkpt>
            <trkpt lon="101.511806" lat="12.729669">
                <ele>25.612305</ele>
                <time>2006-09-23T09:30:58Z</time>
            </trkpt>
            <trkpt lon="101.511662" lat="12.730117">
                <ele>28.976929</ele>
                <time>2006-09-23T09:31:17Z</time>
            </trkpt>
            <trkpt lon="101.511777" lat="12.730577">
                <ele>32.822266</ele>
                <time>2006-09-23T09:31:38Z</time>
            </trkpt>
            <trkpt lon="101.511857" lat="12.730967">
                <ele>32.822266</ele>
                <time>2006-09-23T09:31:58Z</time>
            </trkpt>
            <trkpt lon="101.511867" lat="12.731312">
                <ele>36.186768</ele>
                <time>2006-09-23T09:32:15Z</time>
            </trkpt>
            <trkpt lon="101.511789" lat="12.731886">
                <ele>39.070679</ele>
                <time>2006-09-23T09:32:33Z</time>
            </trkpt>
            <trkpt lon="101.511755" lat="12.732732">
                <ele>38.109375</ele>
                <time>2006-09-23T09:32:48Z</time>
            </trkpt>
            <trkpt lon="101.511963" lat="12.734020">
                <ele>34.264160</ele>
                <time>2006-09-23T09:33:07Z</time>
            </trkpt>
            <trkpt lon="101.512295" lat="12.735217">
                <ele>33.302856</ele>
                <time>2006-09-23T09:33:26Z</time>
            </trkpt>
            <trkpt lon="101.513027" lat="12.736849">
                <ele>32.341553</ele>
                <time>2006-09-23T09:33:57Z</time>
            </trkpt>
            <trkpt lon="101.513881" lat="12.736716">
                <ele>32.822266</ele>
                <time>2006-09-23T09:34:13Z</time>
            </trkpt>
            <trkpt lon="101.514455" lat="12.736587">
                <ele>32.822266</ele>
                <time>2006-09-23T09:34:24Z</time>
            </trkpt>
            <trkpt lon="101.514905" lat="12.736781">
                <ele>33.302856</ele>
                <time>2006-09-23T09:34:32Z</time>
            </trkpt>
            <trkpt lon="101.515246" lat="12.737064">
                <ele>32.341553</ele>
                <time>2006-09-23T09:34:39Z</time>
            </trkpt>
            <trkpt lon="101.517959" lat="12.737567">
                <ele>38.590088</ele>
                <time>2006-09-23T09:35:30Z</time>
            </trkpt>
            <trkpt lon="101.519226" lat="12.737753">
                <ele>37.148071</ele>
                <time>2006-09-23T09:35:56Z</time>
            </trkpt>
            <trkpt lon="101.519498" lat="12.737792">
                <ele>39.070679</ele>
                <time>2006-09-23T09:36:09Z</time>
            </trkpt>
            <trkpt lon="101.519639" lat="12.737796">
                <ele>40.032104</ele>
                <time>2006-09-23T09:36:22Z</time>
            </trkpt>
            <trkpt lon="101.519634" lat="12.737796">
                <ele>39.551270</ele>
                <time>2006-09-23T09:36:44Z</time>
            </trkpt>
            <trkpt lon="101.519518" lat="12.737815">
                <ele>39.551270</ele>
                <time>2006-09-23T09:36:53Z</time>
            </trkpt>
            <trkpt lon="101.519509" lat="12.737829">
                <ele>39.551270</ele>
                <time>2006-09-23T09:36:55Z</time>
            </trkpt>
            <trkpt lon="101.519301" lat="12.738131">
                <ele>40.512817</ele>
                <time>2006-09-23T09:37:11Z</time>
            </trkpt>
            <trkpt lon="101.519397" lat="12.738085">
                <ele>40.512817</ele>
                <time>2006-09-23T09:37:16Z</time>
            </trkpt>
            <trkpt lon="101.519559" lat="12.737853">
                <ele>40.512817</ele>
                <time>2006-09-23T09:37:23Z</time>
            </trkpt>
            <trkpt lon="101.519791" lat="12.737858">
                <ele>40.993408</ele>
                <time>2006-09-23T09:37:29Z</time>
            </trkpt>
            <trkpt lon="101.520316" lat="12.738261">
                <ele>41.954712</ele>
                <time>2006-09-23T09:37:43Z</time>
            </trkpt>
            <trkpt lon="101.521161" lat="12.738770">
                <ele>39.551270</ele>
                <time>2006-09-23T09:38:02Z</time>
            </trkpt>
            <trkpt lon="101.522526" lat="12.739541">
                <ele>35.225464</ele>
                <time>2006-09-23T09:38:23Z</time>
            </trkpt>
            <trkpt lon="101.522596" lat="12.739577">
                <ele>34.744873</ele>
                <time>2006-09-23T09:38:24Z</time>
            </trkpt>
            <trkpt lon="101.523756" lat="12.739769">
                <ele>32.822266</ele>
                <time>2006-09-23T09:38:39Z</time>
            </trkpt>
            <trkpt lon="101.524716" lat="12.739881">
                <ele>38.590088</ele>
                <time>2006-09-23T09:38:55Z</time>
            </trkpt>
            <trkpt lon="101.524940" lat="12.739917">
                <ele>40.993408</ele>
                <time>2006-09-23T09:39:01Z</time>
            </trkpt>
            <trkpt lon="101.525829" lat="12.739842">
                <ele>38.109375</ele>
                <time>2006-09-23T09:39:16Z</time>
            </trkpt>
            <trkpt lon="101.525951" lat="12.739828">
                <ele>37.628662</ele>
                <time>2006-09-23T09:39:19Z</time>
            </trkpt>
            <trkpt lon="101.525996" lat="12.739681">
                <ele>36.186768</ele>
                <time>2006-09-23T09:39:27Z</time>
            </trkpt>
            <trkpt lon="101.525756" lat="12.739345">
                <ele>36.186768</ele>
                <time>2006-09-23T09:39:42Z</time>
            </trkpt>
            <trkpt lon="101.525755" lat="12.739029">
                <ele>35.706055</ele>
                <time>2006-09-23T09:39:54Z</time>
            </trkpt>
            <trkpt lon="101.525710" lat="12.738709">
                <ele>36.667480</ele>
                <time>2006-09-23T09:40:09Z</time>
            </trkpt>
            <trkpt lon="101.525885" lat="12.738549">
                <ele>38.109375</ele>
                <time>2006-09-23T09:40:23Z</time>
            </trkpt>
            <trkpt lon="101.526152" lat="12.738477">
                <ele>40.032104</ele>
                <time>2006-09-23T09:40:41Z</time>
            </trkpt>
            <trkpt lon="101.526463" lat="12.738434">
                <ele>42.916016</ele>
                <time>2006-09-23T09:41:01Z</time>
            </trkpt>
            <trkpt lon="101.526531" lat="12.738418">
                <ele>42.916016</ele>
                <time>2006-09-23T09:41:05Z</time>
            </trkpt>
            <trkpt lon="101.526540" lat="12.738380">
                <ele>42.435425</ele>
                <time>2006-09-23T09:41:08Z</time>
            </trkpt>
            <trkpt lon="101.526243" lat="12.737595">
                <ele>47.241821</ele>
                <time>2006-09-23T09:41:43Z</time>
            </trkpt>
            <trkpt lon="101.526317" lat="12.737050">
                <ele>47.241821</ele>
                <time>2006-09-23T09:42:04Z</time>
            </trkpt>
            <trkpt lon="101.526402" lat="12.736704">
                <ele>49.645264</ele>
                <time>2006-09-23T09:42:20Z</time>
            </trkpt>
            <trkpt lon="101.526526" lat="12.736466">
                <ele>56.374512</ele>
                <time>2006-09-23T09:42:38Z</time>
            </trkpt>
            <trkpt lon="101.526622" lat="12.736481">
                <ele>56.374512</ele>
                <time>2006-09-23T09:42:46Z</time>
            </trkpt>
            <trkpt lon="101.528505" lat="12.737607">
                <ele>58.297119</ele>
                <time>2006-09-23T09:43:51Z</time>
            </trkpt>
            <trkpt lon="101.528701" lat="12.737662">
                <ele>57.816528</ele>
                <time>2006-09-23T09:43:54Z</time>
            </trkpt>
            <trkpt lon="101.528842" lat="12.737660">
                <ele>55.893799</ele>
                <time>2006-09-23T09:43:56Z</time>
            </trkpt>
            <trkpt lon="101.529253" lat="12.737603">
                <ele>51.087158</ele>
                <time>2006-09-23T09:44:02Z</time>
            </trkpt>
            <trkpt lon="101.529445" lat="12.737677">
                <ele>49.164551</ele>
                <time>2006-09-23T09:44:06Z</time>
            </trkpt>
            <trkpt lon="101.530193" lat="12.738773">
                <ele>43.877319</ele>
                <time>2006-09-23T09:44:22Z</time>
            </trkpt>
            <trkpt lon="101.531317" lat="12.740130">
                <ele>38.590088</ele>
                <time>2006-09-23T09:44:45Z</time>
            </trkpt>
            <trkpt lon="101.532166" lat="12.741053">
                <ele>34.264160</ele>
                <time>2006-09-23T09:45:07Z</time>
            </trkpt>
            <trkpt lon="101.532327" lat="12.741163">
                <ele>33.302856</ele>
                <time>2006-09-23T09:45:12Z</time>
            </trkpt>
            <trkpt lon="101.532411" lat="12.741120">
                <ele>32.822266</ele>
                <time>2006-09-23T09:45:16Z</time>
            </trkpt>
            <trkpt lon="101.532474" lat="12.741018">
                <ele>31.860718</ele>
                <time>2006-09-23T09:45:22Z</time>
            </trkpt>
            <trkpt lon="101.532777" lat="12.740929">
                <ele>31.860718</ele>
                <time>2006-09-23T09:45:40Z</time>
            </trkpt>
            <trkpt lon="101.533218" lat="12.741317">
                <ele>30.899536</ele>
                <time>2006-09-23T09:45:55Z</time>
            </trkpt>
            <trkpt lon="101.533421" lat="12.741419">
                <ele>29.938110</ele>
                <time>2006-09-23T09:46:08Z</time>
            </trkpt>
            <trkpt lon="101.533416" lat="12.741438">
                <ele>37.628662</ele>
                <time>2006-09-23T09:49:13Z</time>
            </trkpt>
            <trkpt lon="101.533518" lat="12.741461">
                <ele>33.783447</ele>
                <time>2006-09-23T09:49:28Z</time>
            </trkpt>
            <trkpt lon="101.533762" lat="12.741580">
                <ele>33.302856</ele>
                <time>2006-09-23T09:49:45Z</time>
            </trkpt>
            <trkpt lon="101.534072" lat="12.741798">
                <ele>29.938110</ele>
                <time>2006-09-23T09:50:04Z</time>
            </trkpt>
            <trkpt lon="101.534404" lat="12.742025">
                <ele>28.015503</ele>
                <time>2006-09-23T09:50:23Z</time>
            </trkpt>
            <trkpt lon="101.534620" lat="12.742145">
                <ele>28.496216</ele>
                <time>2006-09-23T09:50:37Z</time>
            </trkpt>
            <trkpt lon="101.534644" lat="12.742639">
                <ele>25.131714</ele>
                <time>2006-09-23T09:51:02Z</time>
            </trkpt>
            <trkpt lon="101.534659" lat="12.742780">
                <ele>25.612305</ele>
                <time>2006-09-23T09:51:17Z</time>
            </trkpt>
            <trkpt lon="101.534660" lat="12.742864">
                <ele>24.651001</ele>
                <time>2006-09-23T09:51:31Z</time>
            </trkpt>
            <trkpt lon="101.534652" lat="12.742906">
                <ele>24.170288</ele>
                <time>2006-09-23T09:51:36Z</time>
            </trkpt>
            <trkpt lon="101.534626" lat="12.742979">
                <ele>23.689575</ele>
                <time>2006-09-23T09:51:41Z</time>
            </trkpt>
            <trkpt lon="101.534623" lat="12.743020">
                <ele>23.689575</ele>
                <time>2006-09-23T09:51:43Z</time>
            </trkpt>
            <trkpt lon="101.534715" lat="12.743146">
                <ele>22.728271</ele>
                <time>2006-09-23T09:51:51Z</time>
            </trkpt>
            <trkpt lon="101.534944" lat="12.743314">
                <ele>21.286377</ele>
                <time>2006-09-23T09:52:05Z</time>
            </trkpt>
            <trkpt lon="101.535036" lat="12.743318">
                <ele>20.805664</ele>
                <time>2006-09-23T09:52:10Z</time>
            </trkpt>
            <trkpt lon="101.535102" lat="12.743333">
                <ele>20.324951</ele>
                <time>2006-09-23T09:52:14Z</time>
            </trkpt>
            <trkpt lon="101.535204" lat="12.743422">
                <ele>23.689575</ele>
                <time>2006-09-23T09:52:22Z</time>
            </trkpt>
            <trkpt lon="101.535182" lat="12.743520">
                <ele>27.534912</ele>
                <time>2006-09-23T09:52:27Z</time>
            </trkpt>
            <trkpt lon="101.535251" lat="12.743590">
                <ele>26.573608</ele>
                <time>2006-09-23T09:52:33Z</time>
            </trkpt>
            <trkpt lon="101.535408" lat="12.743710">
                <ele>25.131714</ele>
                <time>2006-09-23T09:52:46Z</time>
            </trkpt>
            <trkpt lon="101.535415" lat="12.743786">
                <ele>25.131714</ele>
                <time>2006-09-23T09:52:50Z</time>
            </trkpt>
            <trkpt lon="101.535955" lat="12.744019">
                <ele>27.534912</ele>
                <time>2006-09-23T09:53:25Z</time>
            </trkpt>
            <trkpt lon="101.535911" lat="12.744355">
                <ele>23.689575</ele>
                <time>2006-09-23T09:53:42Z</time>
            </trkpt>
            <trkpt lon="101.535631" lat="12.744739">
                <ele>20.805664</ele>
                <time>2006-09-23T09:53:57Z</time>
            </trkpt>
            <trkpt lon="101.535341" lat="12.745199">
                <ele>21.286377</ele>
                <time>2006-09-23T09:54:12Z</time>
            </trkpt>
            <trkpt lon="101.535269" lat="12.745653">
                <ele>23.208984</ele>
                <time>2006-09-23T09:54:28Z</time>
            </trkpt>
            <trkpt lon="101.535092" lat="12.745986">
                <ele>26.092896</ele>
                <time>2006-09-23T09:54:45Z</time>
            </trkpt>
            <trkpt lon="101.534891" lat="12.746257">
                <ele>27.054321</ele>
                <time>2006-09-23T09:55:01Z</time>
            </trkpt>
            <trkpt lon="101.534677" lat="12.746588">
                <ele>28.015503</ele>
                <time>2006-09-23T09:55:19Z</time>
            </trkpt>
            <trkpt lon="101.534722" lat="12.746841">
                <ele>28.976929</ele>
                <time>2006-09-23T09:55:30Z</time>
            </trkpt>
            <trkpt lon="101.534746" lat="12.746863">
                <ele>28.976929</ele>
                <time>2006-09-23T09:55:31Z</time>
            </trkpt>
            <trkpt lon="101.534903" lat="12.746951">
                <ele>29.457520</ele>
                <time>2006-09-23T09:55:35Z</time>
            </trkpt>
            <trkpt lon="101.535830" lat="12.747517">
                <ele>27.534912</ele>
                <time>2006-09-23T09:55:53Z</time>
            </trkpt>
            <trkpt lon="101.536856" lat="12.748126">
                <ele>26.092896</ele>
                <time>2006-09-23T09:56:11Z</time>
            </trkpt>
            <trkpt lon="101.537505" lat="12.748447">
                <ele>24.170288</ele>
                <time>2006-09-23T09:56:20Z</time>
            </trkpt>
            <trkpt lon="101.538171" lat="12.749180">
                <ele>23.208984</ele>
                <time>2006-09-23T09:56:36Z</time>
            </trkpt>
            <trkpt lon="101.538784" lat="12.749867">
                <ele>24.170288</ele>
                <time>2006-09-23T09:56:56Z</time>
            </trkpt>
            <trkpt lon="101.539339" lat="12.750496">
                <ele>25.131714</ele>
                <time>2006-09-23T09:57:14Z</time>
            </trkpt>
            <trkpt lon="101.539733" lat="12.750997">
                <ele>27.534912</ele>
                <time>2006-09-23T09:57:31Z</time>
            </trkpt>
            <trkpt lon="101.539715" lat="12.751049">
                <ele>28.015503</ele>
                <time>2006-09-23T09:57:40Z</time>
            </trkpt>
            <trkpt lon="101.539700" lat="12.751058">
                <ele>28.015503</ele>
                <time>2006-09-23T09:57:45Z</time>
            </trkpt>
            <trkpt lon="101.539975" lat="12.750825">
                <ele>26.092896</ele>
                <time>2006-09-23T09:57:57Z</time>
            </trkpt>
            <trkpt lon="101.540343" lat="12.750588">
                <ele>27.054321</ele>
                <time>2006-09-23T09:58:08Z</time>
            </trkpt>
            <trkpt lon="101.540404" lat="12.750572">
                <ele>27.534912</ele>
                <time>2006-09-23T09:58:10Z</time>
            </trkpt>
            <trkpt lon="101.540539" lat="12.750910">
                <ele>28.496216</ele>
                <time>2006-09-23T09:58:22Z</time>
            </trkpt>
            <trkpt lon="101.540656" lat="12.751328">
                <ele>31.380127</ele>
                <time>2006-09-23T09:58:41Z</time>
            </trkpt>
            <trkpt lon="101.540768" lat="12.751882">
                <ele>28.976929</ele>
                <time>2006-09-23T09:59:00Z</time>
            </trkpt>
            <trkpt lon="101.540774" lat="12.751922">
                <ele>29.457520</ele>
                <time>2006-09-23T09:59:01Z</time>
            </trkpt>
            <trkpt lon="101.540802" lat="12.752014">
                <ele>29.938110</ele>
                <time>2006-09-23T09:59:03Z</time>
            </trkpt>
            <trkpt lon="101.540958" lat="12.752217">
                <ele>29.938110</ele>
                <time>2006-09-23T09:59:08Z</time>
            </trkpt>
            <trkpt lon="101.541042" lat="12.752549">
                <ele>31.380127</ele>
                <time>2006-09-23T09:59:15Z</time>
            </trkpt>
            <trkpt lon="101.540828" lat="12.753689">
                <ele>35.706055</ele>
                <time>2006-09-23T09:59:39Z</time>
            </trkpt>
            <trkpt lon="101.540703" lat="12.754601">
                <ele>35.225464</ele>
                <time>2006-09-23T10:00:01Z</time>
            </trkpt>
            <trkpt lon="101.540671" lat="12.754972">
                <ele>39.070679</ele>
                <time>2006-09-23T10:00:15Z</time>
            </trkpt>
            <trkpt lon="101.540028" lat="12.755709">
                <ele>47.722534</ele>
                <time>2006-09-23T10:01:04Z</time>
            </trkpt>
            <trkpt lon="101.539941" lat="12.755706">
                <ele>49.645264</ele>
                <time>2006-09-23T10:01:08Z</time>
            </trkpt>
            <trkpt lon="101.539913" lat="12.755813">
                <ele>50.606567</ele>
                <time>2006-09-23T10:01:15Z</time>
            </trkpt>
            <trkpt lon="101.539874" lat="12.755939">
                <ele>50.606567</ele>
                <time>2006-09-23T10:01:21Z</time>
            </trkpt>
            <trkpt lon="101.539389" lat="12.756121">
                <ele>49.645264</ele>
                <time>2006-09-23T10:01:37Z</time>
            </trkpt>
            <trkpt lon="101.538891" lat="12.756341">
                <ele>47.722534</ele>
                <time>2006-09-23T10:01:52Z</time>
            </trkpt>
            <trkpt lon="101.538426" lat="12.756578">
                <ele>46.280640</ele>
                <time>2006-09-23T10:02:07Z</time>
            </trkpt>
            <trkpt lon="101.538149" lat="12.756713">
                <ele>44.358032</ele>
                <time>2006-09-23T10:02:15Z</time>
            </trkpt>
            <trkpt lon="101.537739" lat="12.756962">
                <ele>41.473999</ele>
                <time>2006-09-23T10:02:28Z</time>
            </trkpt>
            <trkpt lon="101.537467" lat="12.757144">
                <ele>40.512817</ele>
                <time>2006-09-23T10:02:40Z</time>
            </trkpt>
            <trkpt lon="101.536594" lat="12.757579">
                <ele>39.551270</ele>
                <time>2006-09-23T10:03:09Z</time>
            </trkpt>
            <trkpt lon="101.536294" lat="12.757649">
                <ele>40.993408</ele>
                <time>2006-09-23T10:03:27Z</time>
            </trkpt>
            <trkpt lon="101.535995" lat="12.757841">
                <ele>40.512817</ele>
                <time>2006-09-23T10:03:43Z</time>
            </trkpt>
            <trkpt lon="101.535909" lat="12.757966">
                <ele>40.512817</ele>
                <time>2006-09-23T10:03:50Z</time>
            </trkpt>
            <trkpt lon="101.535948" lat="12.758114">
                <ele>40.512817</ele>
                <time>2006-09-23T10:03:56Z</time>
            </trkpt>
            <trkpt lon="101.536072" lat="12.758513">
                <ele>42.916016</ele>
                <time>2006-09-23T10:04:15Z</time>
            </trkpt>
            <trkpt lon="101.536337" lat="12.759018">
                <ele>45.319214</ele>
                <time>2006-09-23T10:04:40Z</time>
            </trkpt>
            <trkpt lon="101.536530" lat="12.759387">
                <ele>47.241821</ele>
                <time>2006-09-23T10:04:58Z</time>
            </trkpt>
            <trkpt lon="101.537039" lat="12.760219">
                <ele>45.319214</ele>
                <time>2006-09-23T10:05:21Z</time>
            </trkpt>
            <trkpt lon="101.537298" lat="12.760616">
                <ele>42.435425</ele>
                <time>2006-09-23T10:05:30Z</time>
            </trkpt>
            <trkpt lon="101.537627" lat="12.761073">
                <ele>40.512817</ele>
                <time>2006-09-23T10:05:42Z</time>
            </trkpt>
            <trkpt lon="101.537735" lat="12.761206">
                <ele>40.032104</ele>
                <time>2006-09-23T10:05:47Z</time>
            </trkpt>
            <trkpt lon="101.537914" lat="12.761174">
                <ele>39.070679</ele>
                <time>2006-09-23T10:05:52Z</time>
            </trkpt>
            <trkpt lon="101.538765" lat="12.760845">
                <ele>37.628662</ele>
                <time>2006-09-23T10:06:09Z</time>
            </trkpt>
            <trkpt lon="101.540062" lat="12.760718">
                <ele>34.744873</ele>
                <time>2006-09-23T10:06:28Z</time>
            </trkpt>
            <trkpt lon="101.541344" lat="12.760603">
                <ele>33.302856</ele>
                <time>2006-09-23T10:06:46Z</time>
            </trkpt>
            <trkpt lon="101.541596" lat="12.760564">
                <ele>32.822266</ele>
                <time>2006-09-23T10:06:50Z</time>
            </trkpt>
            <trkpt lon="101.542617" lat="12.760236">
                <ele>30.899536</ele>
                <time>2006-09-23T10:07:07Z</time>
            </trkpt>
            <trkpt lon="101.543607" lat="12.759706">
                <ele>28.976929</ele>
                <time>2006-09-23T10:07:24Z</time>
            </trkpt>
            <trkpt lon="101.543977" lat="12.759461">
                <ele>27.534912</ele>
                <time>2006-09-23T10:07:31Z</time>
            </trkpt>
            <trkpt lon="101.545055" lat="12.758643">
                <ele>25.612305</ele>
                <time>2006-09-23T10:07:51Z</time>
            </trkpt>
            <trkpt lon="101.546047" lat="12.757910">
                <ele>24.651001</ele>
                <time>2006-09-23T10:08:10Z</time>
            </trkpt>
            <trkpt lon="101.546230" lat="12.758075">
                <ele>22.728271</ele>
                <time>2006-09-23T10:08:16Z</time>
            </trkpt>
            <trkpt lon="101.546236" lat="12.758141">
                <ele>22.247559</ele>
                <time>2006-09-23T10:08:17Z</time>
            </trkpt>
            <trkpt lon="101.546220" lat="12.759204">
                <ele>22.728271</ele>
                <time>2006-09-23T10:08:34Z</time>
            </trkpt>
            <trkpt lon="101.546172" lat="12.760205">
                <ele>24.651001</ele>
                <time>2006-09-23T10:08:53Z</time>
            </trkpt>
            <trkpt lon="101.546108" lat="12.760668">
                <ele>25.131714</ele>
                <time>2006-09-23T10:09:03Z</time>
            </trkpt>
            <trkpt lon="101.545972" lat="12.760854">
                <ele>25.612305</ele>
                <time>2006-09-23T10:09:08Z</time>
            </trkpt>
            <trkpt lon="101.545292" lat="12.761443">
                <ele>25.131714</ele>
                <time>2006-09-23T10:09:28Z</time>
            </trkpt>
            <trkpt lon="101.545151" lat="12.761547">
                <ele>25.612305</ele>
                <time>2006-09-23T10:09:32Z</time>
            </trkpt>
            <trkpt lon="101.544567" lat="12.762003">
                <ele>26.092896</ele>
                <time>2006-09-23T10:09:48Z</time>
            </trkpt>
            <trkpt lon="101.543897" lat="12.762700">
                <ele>23.689575</ele>
                <time>2006-09-23T10:10:08Z</time>
            </trkpt>
            <trkpt lon="101.543524" lat="12.763485">
                <ele>20.805664</ele>
                <time>2006-09-23T10:10:26Z</time>
            </trkpt>
            <trkpt lon="101.543184" lat="12.764452">
                <ele>24.170288</ele>
                <time>2006-09-23T10:10:47Z</time>
            </trkpt>
            <trkpt lon="101.543059" lat="12.765171">
                <ele>29.457520</ele>
                <time>2006-09-23T10:11:10Z</time>
            </trkpt>
            <trkpt lon="101.543069" lat="12.765126">
                <ele>30.899536</ele>
                <time>2006-09-23T10:11:20Z</time>
            </trkpt>
            <trkpt lon="101.542920" lat="12.765385">
                <ele>28.015503</ele>
                <time>2006-09-23T10:11:35Z</time>
            </trkpt>
            <trkpt lon="101.542118" lat="12.766672">
                <ele>27.534912</ele>
                <time>2006-09-23T10:11:47Z</time>
            </trkpt>
            <trkpt lon="101.541439" lat="12.767464">
                <ele>29.457520</ele>
                <time>2006-09-23T10:12:12Z</time>
            </trkpt>
            <trkpt lon="101.541146" lat="12.767817">
                <ele>34.264160</ele>
                <time>2006-09-23T10:12:28Z</time>
            </trkpt>
            <trkpt lon="101.540922" lat="12.768109">
                <ele>40.512817</ele>
                <time>2006-09-23T10:12:44Z</time>
            </trkpt>
            <trkpt lon="101.541267" lat="12.768325">
                <ele>40.993408</ele>
                <time>2006-09-23T10:12:54Z</time>
            </trkpt>
            <trkpt lon="101.542146" lat="12.768861">
                <ele>40.512817</ele>
                <time>2006-09-23T10:13:10Z</time>
            </trkpt>
            <trkpt lon="101.542678" lat="12.769212">
                <ele>40.993408</ele>
                <time>2006-09-23T10:13:20Z</time>
            </trkpt>
            <trkpt lon="101.543219" lat="12.769647">
                <ele>42.916016</ele>
                <time>2006-09-23T10:13:36Z</time>
            </trkpt>
            <trkpt lon="101.543629" lat="12.770260">
                <ele>45.319214</ele>
                <time>2006-09-23T10:13:55Z</time>
            </trkpt>
            <trkpt lon="101.544118" lat="12.770725">
                <ele>49.164551</ele>
                <time>2006-09-23T10:14:15Z</time>
            </trkpt>
            <trkpt lon="101.544405" lat="12.770810">
                <ele>52.048584</ele>
                <time>2006-09-23T10:14:34Z</time>
            </trkpt>
            <trkpt lon="101.544722" lat="12.770839">
                <ele>54.451782</ele>
                <time>2006-09-23T10:14:52Z</time>
            </trkpt>
            <trkpt lon="101.545037" lat="12.770829">
                <ele>57.816528</ele>
                <time>2006-09-23T10:15:10Z</time>
            </trkpt>
            <trkpt lon="101.545394" lat="12.770792">
                <ele>58.297119</ele>
                <time>2006-09-23T10:15:34Z</time>
            </trkpt>
            <trkpt lon="101.546122" lat="12.770839">
                <ele>63.103638</ele>
                <time>2006-09-23T10:16:13Z</time>
            </trkpt>
            <trkpt lon="101.546209" lat="12.770773">
                <ele>64.065063</ele>
                <time>2006-09-23T10:16:18Z</time>
            </trkpt>
            <trkpt lon="101.546348" lat="12.770461">
                <ele>64.545654</ele>
                <time>2006-09-23T10:16:27Z</time>
            </trkpt>
            <trkpt lon="101.546128" lat="12.770224">
                <ele>63.103638</ele>
                <time>2006-09-23T10:16:35Z</time>
            </trkpt>
            <trkpt lon="101.546110" lat="12.770195">
                <ele>62.622925</ele>
                <time>2006-09-23T10:16:36Z</time>
            </trkpt>
            <trkpt lon="101.546087" lat="12.770134">
                <ele>62.142334</ele>
                <time>2006-09-23T10:16:38Z</time>
            </trkpt>
            <trkpt lon="101.546191" lat="12.769946">
                <ele>61.181030</ele>
                <time>2006-09-23T10:16:44Z</time>
            </trkpt>
            <trkpt lon="101.546534" lat="12.770026">
                <ele>59.258423</ele>
                <time>2006-09-23T10:16:55Z</time>
            </trkpt>
            <trkpt lon="101.546810" lat="12.770177">
                <ele>59.739136</ele>
                <time>2006-09-23T10:17:05Z</time>
            </trkpt>
            <trkpt lon="101.546850" lat="12.770250">
                <ele>60.700317</ele>
                <time>2006-09-23T10:17:09Z</time>
            </trkpt>
            <trkpt lon="101.546861" lat="12.770269">
                <ele>61.181030</ele>
                <time>2006-09-23T10:17:25Z</time>
            </trkpt>
            <trkpt lon="101.546865" lat="12.770268">
                <ele>60.219727</ele>
                <time>2006-09-23T10:17:31Z</time>
            </trkpt>
        </trkseg>
    </trk>
</gpx>